Time,TemperatureF,DewpointF,PressureIn,WindDirection,WindDirectionDegrees,WindSpeedMPH,WindSpeedGustMPH,Humidity,HourlyPrecipIn,Conditions,Clouds,dailyrainin,SolarRadiationWatts/m^2,SoftwareType,DateUTC
2013-07-09 00:01:00,70.4,70.4,29.97,West,264,0.0,0.0,100,0.00,,,0.00,0.00,VWS V14.01,2013-07-09 04:01:00,
2013-07-09 00:02:00,70.4,70.4,29.97,West,264,0.0,0.0,100,0.00,,,0.00,0.00,VWS V14.01,2013-07-09 04:02:00,
2013-07-09 00:04:00,70.4,70.4,29.97,West,264,0.0,0.0,100,0.00,,,0.00,0.12,VWS V14.01,2013-07-09 04:04:00,
2013-07-09 00:06:00,70.5,70.5,29.97,West,264,0.0,0.0,100,0.00,,,0.00,0.00,VWS V14.01,2013-07-09 04:06:00,
2013-07-09 00:07:00,70.7,70.7,29.97,West,264,0.0,0.0,100,0.00,,,0.00,0.00,VWS V14.01,2013-07-09 04:07:00,
2013-07-09 00:11:00,70.6,70.6,29.97,West,264,0.0,0.0,100,0.00,,,0.00,0.00,VWS V14.01,2013-07-09 04:11:00,
2013-07-09 00:12:00,70.4,70.4,29.95,West,264,0.0,0.0,100,0.00,,,0.00,0.00,VWS V14.01,2013-07-09 04:12:00,
2013-07-09 00:14:00,70.5,70.5,29.96,West,264,0.0,0.0,100,0.00,,,0.00,0.00,VWS V14.01,2013-07-09 04:14:00,
2013-07-09 00:17:00,70.5,70.5,29.96,West,264,1.8,1.8,100,0.00,,,0.00,0.00,VWS V14.01,2013-07-09 04:17:00,
2013-07-09 00:18:00,70.2,70.2,29.95,WSW,258,2.2,2.7,100,0.00,,,0.00,0.43,VWS V14.01,2013-07-09 04:18:00,
2013-07-09 00:19:00,70.0,70.0,29.96,WSW,258,2.3,2.3,100,0.00,,,0.00,0.00,VWS V14.01,2013-07-09 04:19:00,
2013-07-09 00:20:00,69.9,69.9,29.97,WSW,255,2.0,2.3,100,0.00,,,0.00,0.00,VWS V14.01,2013-07-09 04:20:00,
2013-07-09 00:22:00,70.3,70.3,29.97,WSW,253,2.3,2.3,100,0.00,,,0.00,0.00,VWS V14.01,2013-07-09 04:22:00,
2013-07-09 00:23:00,70.3,70.3,29.96,WSW,253,2.3,2.3,100,0.00,,,0.00,0.00,VWS V14.01,2013-07-09 04:23:00,
2013-07-09 00:24:00,70.2,70.2,29.96,WSW,253,2.3,2.3,100,0.00,,,0.00,0.00,VWS V14.01,2013-07-09 04:24:00,
2013-07-09 00:25:00,69.4,69.4,29.96,WSW,253,1.8,2.2,100,0.00,,,0.00,0.00,VWS V14.01,2013-07-09 04:25:00,
2013-07-09 00:28:00,69.6,69.6,29.95,WSW,253,1.8,2.2,100,0.00,,,0.00,0.00,VWS V14.01,2013-07-09 04:28:00,
2013-07-09 00:30:00,69.7,69.7,29.96,WSW,253,0.0,0.0,100,0.00,,,0.00,0.00,VWS V14.01,2013-07-09 04:30:00,
2013-07-09 00:31:00,69.4,69.4,29.97,WSW,253,0.0,0.0,100,0.00,,,0.00,0.43,VWS V14.01,2013-07-09 04:31:00,
2013-07-09 00:32:00,68.9,68.9,29.97,WSW,253,0.0,0.0,100,0.00,,,0.00,0.00,VWS V14.01,2013-07-09 04:32:00,
2013-07-09 00:34:00,69.1,69.1,29.97,West,271,0.0,0.0,100,0.00,,,0.00,0.00,VWS V14.01,2013-07-09 04:34:00,
2013-07-09 00:37:00,69.4,69.4,29.97,WSW,252,2.0,2.0,100,0.00,,,0.00,0.00,VWS V14.01,2013-07-09 04:37:00,
2013-07-09 00:39:00,69.4,69.4,29.97,West,262,1.5,2.0,100,0.00,,,0.00,0.43,VWS V14.01,2013-07-09 04:39:00,
2013-07-09 00:40:00,69.6,69.7,29.97,West,262,0.0,0.0,100,0.00,,,0.00,0.43,VWS V14.01,2013-07-09 04:40:00,
2013-07-09 00:42:00,69.8,69.8,29.96,West,268,1.8,2.3,100,0.00,,,0.00,0.00,VWS V14.01,2013-07-09 04:42:00,
2013-07-09 00:43:00,69.9,69.9,29.96,West,270,2.2,2.2,100,0.00,,,0.00,0.43,VWS V14.01,2013-07-09 04:43:00,
2013-07-09 00:45:00,69.8,69.8,29.96,WSW,257,0.0,1.8,100,0.00,,,0.00,0.00,VWS V14.01,2013-07-09 04:45:00,
2013-07-09 00:46:00,70.3,70.3,29.97,West,266,1.3,1.8,100,0.00,,,0.00,0.00,VWS V14.01,2013-07-09 04:46:00,
2013-07-09 00:47:00,70.0,70.0,29.96,West,273,1.0,2.2,100,0.00,,,0.00,0.00,VWS V14.01,2013-07-09 04:47:00,
2013-07-09 00:48:00,69.9,69.9,29.97,West,263,0.0,0.0,100,0.00,,,0.00,0.00,VWS V14.01,2013-07-09 04:48:00,
2013-07-09 00:49:00,69.9,69.9,29.97,West,263,0.0,0.0,100,0.00,,,0.00,0.00,VWS V14.01,2013-07-09 04:49:00,
2013-07-09 00:51:00,70.2,70.2,29.97,West,267,0.0,0.0,100,0.00,,,0.00,0.12,VWS V14.01,2013-07-09 04:51:00,
2013-07-09 00:52:00,70.6,70.6,29.97,West,265,0.0,0.0,100,0.00,,,0.00,0.00,VWS V14.01,2013-07-09 04:52:00,
2013-07-09 00:53:00,70.7,70.7,29.96,West,272,1.3,1.6,100,0.00,,,0.00,0.00,VWS V14.01,2013-07-09 04:53:00,
2013-07-09 00:54:00,70.0,70.0,29.96,West,272,0.0,1.3,100,0.00,,,0.00,0.00,VWS V14.01,2013-07-09 04:54:00,
2013-07-09 00:58:00,70.1,70.1,29.96,WNW,283,0.0,0.0,100,0.00,,,0.00,0.00,VWS V14.01,2013-07-09 04:58:00,
2013-07-09 00:59:00,70.1,70.1,29.96,WNW,283,0.0,0.0,100,0.00,,,0.00,0.00,VWS V14.01,2013-07-09 04:59:00,
2013-07-09 01:00:00,69.9,69.9,29.96,WNW,283,0.0,0.0,100,0.00,,,0.00,0.00,VWS V14.01,2013-07-09 05:00:00,
2013-07-09 01:03:00,70.4,70.4,29.97,WNW,283,0.0,0.0,100,0.00,,,0.00,0.00,VWS V14.01,2013-07-09 05:03:00,
2013-07-09 01:04:00,70.3,70.3,29.96,NW,320,0.0,0.0,100,0.00,,,0.00,0.00,VWS V14.01,2013-07-09 05:04:00,
2013-07-09 01:05:00,70.3,70.3,29.96,NW,320,0.0,0.0,100,0.00,,,0.00,0.00,VWS V14.01,2013-07-09 05:05:00,
2013-07-09 01:06:00,70.3,69.5,29.96,NW,320,0.0,0.0,97,0.00,,,0.00,0.00,VWS V14.01,2013-07-09 05:06:00,
2013-07-09 01:07:00,70.3,70.3,29.97,NW,320,0.0,0.0,100,0.00,,,0.00,0.00,VWS V14.01,2013-07-09 05:07:00,
2013-07-09 01:08:00,70.3,69.5,29.96,NW,320,0.0,0.0,97,0.00,,,0.00,0.00,VWS V14.01,2013-07-09 05:08:00,
2013-07-09 01:10:00,70.1,70.1,29.96,WNW,301,0.0,0.0,100,0.00,,,0.00,0.00,VWS V14.01,2013-07-09 05:10:00,
2013-07-09 01:11:00,70.3,70.3,29.98,West,277,0.0,0.0,100,0.00,,,0.00,0.00,VWS V14.01,2013-07-09 05:11:00,
2013-07-09 01:12:00,70.1,70.1,29.96,West,277,0.0,0.0,100,0.00,,,0.00,0.00,VWS V14.01,2013-07-09 05:12:00,
2013-07-09 01:13:00,70.5,70.5,29.96,West,267,2.0,2.0,100,0.00,,,0.00,0.00,VWS V14.01,2013-07-09 05:13:00,
2013-07-09 01:14:00,70.0,70.0,29.96,West,264,0.0,2.0,100,0.00,,,0.00,0.00,VWS V14.01,2013-07-09 05:14:00,
2013-07-09 01:15:00,70.0,70.0,29.96,West,269,0.0,0.0,100,0.00,,,0.00,0.43,VWS V14.01,2013-07-09 05:15:00,
2013-07-09 01:16:00,70.0,69.4,29.95,WSW,256,0.0,0.0,98,0.00,,,0.00,0.73,VWS V14.01,2013-07-09 05:16:00,
2013-07-09 01:17:00,70.2,70.2,29.95,WSW,256,0.0,0.0,100,0.00,,,0.00,0.00,VWS V14.01,2013-07-09 05:17:00,
2013-07-09 01:18:00,70.3,70.3,29.95,WSW,244,0.0,1.1,100,0.00,,,0.00,0.00,VWS V14.01,2013-07-09 05:18:00,
2013-07-09 01:20:00,70.1,70.1,29.96,West,267,0.0,0.0,100,0.00,,,0.00,0.00,VWS V14.01,2013-07-09 05:20:00,
2013-07-09 01:22:00,70.3,70.3,29.96,West,277,0.0,0.0,100,0.00,,,0.00,0.00,VWS V14.01,2013-07-09 05:22:00,
2013-07-09 01:23:00,70.0,70.0,29.96,West,262,0.0,0.0,100,0.00,,,0.00,0.00,VWS V14.01,2013-07-09 05:23:00,
2013-07-09 01:24:00,70.0,70.0,29.96,West,262,0.0,0.0,100,0.00,,,0.00,0.00,VWS V14.01,2013-07-09 05:24:00,
2013-07-09 01:25:00,70.1,70.1,29.96,WSW,252,0.0,1.6,100,0.00,,,0.00,0.00,VWS V14.01,2013-07-09 05:25:00,
2013-07-09 01:27:00,70.2,70.3,29.96,WSW,252,0.0,0.0,100,0.00,,,0.00,0.00,VWS V14.01,2013-07-09 05:27:00,
2013-07-09 01:29:00,70.8,70.8,29.95,SW,234,1.1,1.5,100,0.00,,,0.00,0.00,VWS V14.01,2013-07-09 05:29:00,
2013-07-09 01:30:00,71.3,71.3,29.95,WSW,244,3.0,3.0,100,0.00,,,0.00,0.73,VWS V14.01,2013-07-09 05:30:00,
2013-07-09 01:32:00,71.3,71.4,29.95,WSW,248,2.5,3.2,100,0.00,,,0.00,0.00,VWS V14.01,2013-07-09 05:32:00,
2013-07-09 01:34:00,70.7,70.7,29.95,WSW,242,1.1,1.1,100,0.00,,,0.00,0.00,VWS V14.01,2013-07-09 05:34:00,
2013-07-09 01:35:00,71.0,71.0,29.95,WSW,247,0.0,0.0,100,0.00,,,0.00,0.00,VWS V14.01,2013-07-09 05:35:00,
2013-07-09 01:37:00,70.9,70.9,29.95,SW,236,0.0,0.0,100,0.00,,,0.00,0.00,VWS V14.01,2013-07-09 05:37:00,
2013-07-09 01:39:00,70.9,70.9,29.95,SW,226,0.0,0.0,100,0.00,,,0.00,0.00,VWS V14.01,2013-07-09 05:39:00,
2013-07-09 01:41:00,71.2,71.2,29.95,SW,224,0.0,0.0,100,0.00,,,0.00,0.00,VWS V14.01,2013-07-09 05:41:00,
2013-07-09 01:43:00,70.9,70.9,29.95,SW,235,0.0,0.0,100,0.00,,,0.00,0.00,VWS V14.01,2013-07-09 05:43:00,
2013-07-09 01:45:00,71.2,71.2,29.94,SW,229,0.0,0.0,100,0.00,,,0.00,0.12,VWS V14.01,2013-07-09 05:45:00,
2013-07-09 01:46:00,70.8,70.8,29.95,SW,229,0.0,0.0,100,0.00,,,0.00,0.00,VWS V14.01,2013-07-09 05:46:00,
2013-07-09 01:48:00,71.2,71.2,29.94,WSW,237,0.0,0.0,100,0.00,,,0.00,0.00,VWS V14.01,2013-07-09 05:48:00,
2013-07-09 01:50:00,71.1,71.1,29.94,West,264,1.6,1.6,100,0.00,,,0.00,0.00,VWS V14.01,2013-07-09 05:50:00,
2013-07-09 01:51:00,70.8,70.8,29.95,West,264,0.0,1.6,100,0.00,,,0.00,0.00,VWS V14.01,2013-07-09 05:51:00,
2013-07-09 01:52:00,70.7,70.7,29.95,West,264,0.0,0.0,100,0.00,,,0.00,0.00,VWS V14.01,2013-07-09 05:52:00,
2013-07-09 01:53:00,71.1,71.1,29.95,NW,306,0.0,0.0,100,0.00,,,0.00,0.00,VWS V14.01,2013-07-09 05:53:00,
2013-07-09 01:56:00,70.8,70.8,29.95,NW,304,2.2,2.2,100,0.00,,,0.00,0.00,VWS V14.01,2013-07-09 05:56:00,
2013-07-09 01:57:00,70.8,69.5,29.95,NW,311,2.2,2.7,96,0.00,,,0.00,0.00,VWS V14.01,2013-07-09 05:57:00,
2013-07-09 01:58:00,71.0,71.0,29.94,NW,310,0.0,0.0,100,0.00,,,0.00,0.00,VWS V14.01,2013-07-09 05:58:00,
2013-07-09 01:59:00,70.6,70.6,29.95,NW,310,0.0,0.0,100,0.00,,,0.00,0.43,VWS V14.01,2013-07-09 05:59:00,
2013-07-09 02:01:00,70.4,70.4,29.95,NW,310,1.0,1.0,100,0.00,,,0.00,0.00,VWS V14.01,2013-07-09 06:01:00,
2013-07-09 02:04:00,71.0,71.0,29.95,NW,310,2.2,2.2,100,0.00,,,0.00,0.00,VWS V14.01,2013-07-09 06:04:00,
2013-07-09 02:05:00,70.9,70.9,29.95,NW,310,2.2,2.2,100,0.00,,,0.00,0.00,VWS V14.01,2013-07-09 06:05:00,
2013-07-09 02:07:00,71.0,71.0,29.95,NW,310,0.0,0.0,100,0.00,,,0.00,0.43,VWS V14.01,2013-07-09 06:07:00,
2013-07-09 02:09:00,71.2,71.2,29.95,West,276,2.2,2.2,100,0.00,,,0.00,0.00,VWS V14.01,2013-07-09 06:09:00,
2013-07-09 02:10:00,70.9,70.9,29.96,West,280,0.0,2.2,100,0.00,,,0.00,0.43,VWS V14.01,2013-07-09 06:10:00,
2013-07-09 02:12:00,70.8,70.8,29.94,West,259,2.3,2.5,100,0.00,,,0.00,0.00,VWS V14.01,2013-07-09 06:12:00,
2013-07-09 02:14:00,70.6,70.6,29.95,West,266,2.3,2.5,100,0.00,,,0.00,0.00,VWS V14.01,2013-07-09 06:14:00,
2013-07-09 02:15:00,70.6,70.6,29.95,West,281,1.6,2.5,100,0.00,,,0.00,0.00,VWS V14.01,2013-07-09 06:15:00,
2013-07-09 02:16:00,71.0,71.0,29.95,West,270,2.0,2.0,100,0.00,,,0.00,0.00,VWS V14.01,2013-07-09 06:16:00,
2013-07-09 02:18:00,71.0,71.0,29.94,West,266,1.5,2.0,100,0.00,,,0.00,0.00,VWS V14.01,2013-07-09 06:18:00,
2013-07-09 02:19:00,70.9,70.9,29.95,West,274,2.0,2.0,100,0.00,,,0.00,0.00,VWS V14.01,2013-07-09 06:19:00,
2013-07-09 02:20:00,70.9,70.9,29.95,West,274,2.0,2.0,100,0.00,,,0.00,0.00,VWS V14.01,2013-07-09 06:20:00,
2013-07-09 02:23:00,71.1,71.1,29.94,West,270,2.2,2.2,100,0.00,,,0.00,0.00,VWS V14.01,2013-07-09 06:23:00,
2013-07-09 02:24:00,71.3,71.3,29.95,West,270,3.0,3.0,100,0.00,,,0.00,0.00,VWS V14.01,2013-07-09 06:24:00,
2013-07-09 02:25:00,71.1,71.1,29.95,West,272,2.7,3.0,100,0.00,,,0.00,0.73,VWS V14.01,2013-07-09 06:25:00,
2013-07-09 02:26:00,70.7,70.7,29.97,West,278,2.5,2.5,100,0.00,,,0.00,0.00,VWS V14.01,2013-07-09 06:26:00,
2013-07-09 02:28:00,71.0,71.0,29.95,West,276,2.2,2.3,100,0.00,,,0.00,0.43,VWS V14.01,2013-07-09 06:28:00,
2013-07-09 02:29:00,70.9,70.9,29.96,West,276,2.5,2.5,100,0.00,,,0.00,0.00,VWS V14.01,2013-07-09 06:29:00,
2013-07-09 02:31:00,70.7,70.7,29.95,West,281,2.5,2.5,100,0.00,,,0.00,0.00,VWS V14.01,2013-07-09 06:31:00,
2013-07-09 02:32:00,71.0,71.0,29.94,West,280,2.2,3.0,100,0.00,,,0.00,0.00,VWS V14.01,2013-07-09 06:32:00,
2013-07-09 02:33:00,70.5,70.5,29.94,West,278,2.0,2.5,100,0.00,,,0.00,0.00,VWS V14.01,2013-07-09 06:33:00,
2013-07-09 02:35:00,70.2,70.2,29.94,West,278,0.0,0.0,100,0.00,,,0.00,0.06,VWS V14.01,2013-07-09 06:35:00,
2013-07-09 02:37:00,70.3,70.3,29.96,WNW,300,1.5,1.8,100,0.00,,,0.00,0.43,VWS V14.01,2013-07-09 06:37:00,
2013-07-09 02:38:00,70.2,70.2,29.95,WNW,300,1.0,1.5,100,0.00,,,0.00,0.00,VWS V14.01,2013-07-09 06:38:00,
2013-07-09 02:39:00,70.0,70.0,29.96,WNW,303,1.8,1.8,100,0.00,,,0.00,0.12,VWS V14.01,2013-07-09 06:39:00,
2013-07-09 02:40:00,70.2,70.2,29.95,NW,306,2.8,3.4,100,0.00,,,0.00,0.00,VWS V14.01,2013-07-09 06:40:00,
2013-07-09 02:42:00,70.4,70.4,29.95,NW,306,2.8,2.8,100,0.00,,,0.00,0.00,VWS V14.01,2013-07-09 06:42:00,
2013-07-09 02:43:00,70.2,70.2,29.95,WNW,296,2.0,2.0,100,0.00,,,0.00,0.00,VWS V14.01,2013-07-09 06:43:00,
2013-07-09 02:45:00,70.2,70.2,29.95,WNW,296,0.0,2.0,100,0.00,,,0.00,0.00,VWS V14.01,2013-07-09 06:45:00,
2013-07-09 02:46:00,70.4,70.4,29.96,WNW,291,2.0,2.0,100,0.00,,,0.00,0.00,VWS V14.01,2013-07-09 06:46:00,
2013-07-09 02:48:00,70.4,70.4,29.95,WNW,291,1.3,1.6,100,0.00,,,0.00,0.00,VWS V14.01,2013-07-09 06:48:00,
2013-07-09 02:50:00,70.2,70.2,29.95,WNW,291,0.0,0.0,100,0.00,,,0.00,0.00,VWS V14.01,2013-07-09 06:50:00,
2013-07-09 02:51:00,70.0,70.0,29.95,WNW,291,0.0,0.0,100,0.00,,,0.00,0.06,VWS V14.01,2013-07-09 06:51:00,
2013-07-09 02:54:00,70.3,70.3,29.95,WNW,291,0.0,1.0,100,0.00,,,0.00,0.00,VWS V14.01,2013-07-09 06:54:00,
2013-07-09 02:56:00,70.3,70.3,29.95,WNW,291,0.0,1.1,100,0.00,,,0.00,0.00,VWS V14.01,2013-07-09 06:56:00,
2013-07-09 02:57:00,70.3,70.3,29.97,WNW,291,1.6,1.6,100,0.00,,,0.00,0.00,VWS V14.01,2013-07-09 06:57:00,
2013-07-09 03:00:00,70.1,70.1,29.96,WNW,283,1.8,1.8,100,0.00,,,0.00,0.00,VWS V14.01,2013-07-09 07:00:00,
2013-07-09 03:01:00,70.1,70.1,29.95,West,274,1.5,1.8,100,0.00,,,0.00,0.00,VWS V14.01,2013-07-09 07:01:00,
2013-07-09 03:02:00,70.1,70.1,29.96,West,274,1.8,1.8,100,0.00,,,0.00,0.00,VWS V14.01,2013-07-09 07:02:00,
2013-07-09 03:04:00,70.3,70.3,29.95,West,274,1.8,2.0,100,0.00,,,0.00,0.00,VWS V14.01,2013-07-09 07:04:00,
2013-07-09 03:06:00,70.3,70.3,29.95,West,274,0.0,2.0,100,0.00,,,0.00,0.00,VWS V14.01,2013-07-09 07:06:00,
2013-07-09 03:07:00,70.3,70.3,29.95,West,274,0.0,2.0,100,0.00,,,0.00,0.00,VWS V14.01,2013-07-09 07:07:00,
2013-07-09 03:08:00,70.0,70.0,29.95,West,274,0.0,0.0,100,0.00,,,0.00,0.00,VWS V14.01,2013-07-09 07:08:00,
2013-07-09 03:09:00,70.0,70.0,29.95,West,274,0.0,0.0,100,0.00,,,0.00,0.00,VWS V14.01,2013-07-09 07:09:00,
2013-07-09 03:10:00,70.2,70.2,29.96,West,274,0.0,0.0,100,0.00,,,0.00,0.00,VWS V14.01,2013-07-09 07:10:00,
2013-07-09 03:12:00,70.1,70.1,29.95,West,269,0.0,1.0,100,0.00,,,0.00,0.43,VWS V14.01,2013-07-09 07:12:00,
2013-07-09 03:14:00,70.1,70.1,29.95,West,269,2.2,2.2,100,0.00,,,0.00,0.00,VWS V14.01,2013-07-09 07:14:00,
2013-07-09 03:15:00,70.4,70.4,29.98,West,268,2.5,2.5,100,0.00,,,0.00,0.00,VWS V14.01,2013-07-09 07:15:00,
2013-07-09 03:16:00,70.2,70.2,29.96,West,265,2.5,2.5,100,0.00,,,0.00,0.00,VWS V14.01,2013-07-09 07:16:00,
2013-07-09 03:17:00,70.0,70.0,29.96,West,265,2.7,2.7,100,0.00,,,0.00,0.00,VWS V14.01,2013-07-09 07:17:00,
2013-07-09 03:20:00,70.2,70.2,29.96,West,264,2.2,2.2,100,0.00,,,0.00,0.12,VWS V14.01,2013-07-09 07:20:00,
2013-07-09 03:21:00,70.4,70.4,29.96,West,264,0.0,0.0,100,0.00,,,0.00,0.00,VWS V14.01,2013-07-09 07:21:00,
2013-07-09 03:22:00,69.8,69.9,29.96,West,264,0.0,0.0,100,0.00,,,0.00,0.43,VWS V14.01,2013-07-09 07:22:00,
2013-07-09 03:25:00,70.1,70.1,29.96,West,264,0.0,0.0,100,0.00,,,0.00,0.00,VWS V14.01,2013-07-09 07:25:00,
2013-07-09 03:27:00,69.9,69.9,29.96,WSW,257,0.0,0.0,100,0.00,,,0.00,0.00,VWS V14.01,2013-07-09 07:27:00,
2013-07-09 03:28:00,70.1,70.1,29.96,WSW,250,0.0,0.0,100,0.00,,,0.00,0.00,VWS V14.01,2013-07-09 07:28:00,
2013-07-09 03:30:00,70.2,70.2,29.96,WSW,242,0.0,0.0,100,0.00,,,0.00,0.00,VWS V14.01,2013-07-09 07:30:00,
2013-07-09 03:32:00,70.3,70.3,29.96,WSW,242,0.0,0.0,100,0.00,,,0.00,0.00,VWS V14.01,2013-07-09 07:32:00,
2013-07-09 03:33:00,70.2,70.2,29.95,WSW,242,0.0,0.0,100,0.00,,,0.00,0.00,VWS V14.01,2013-07-09 07:33:00,
2013-07-09 03:34:00,69.5,69.5,29.95,WSW,242,0.0,0.0,100,0.00,,,0.00,0.00,VWS V14.01,2013-07-09 07:34:00,
2013-07-09 03:36:00,69.5,69.5,29.96,WSW,242,0.0,0.0,100,0.00,,,0.00,0.00,VWS V14.01,2013-07-09 07:36:00,
2013-07-09 03:38:00,69.1,69.1,29.96,WSW,242,0.0,0.0,100,0.00,,,0.00,0.00,VWS V14.01,2013-07-09 07:38:00,
2013-07-09 03:39:00,69.0,69.0,29.95,WSW,242,0.0,0.0,100,0.00,,,0.00,0.00,VWS V14.01,2013-07-09 07:39:00,
2013-07-09 03:40:00,69.1,69.1,29.97,WSW,242,0.0,0.0,100,0.00,,,0.00,0.00,VWS V14.01,2013-07-09 07:40:00,
2013-07-09 03:42:00,69.4,68.8,29.96,WSW,242,0.0,0.0,98,0.00,,,0.00,0.00,VWS V14.01,2013-07-09 07:42:00,
2013-07-09 03:43:00,69.4,69.4,29.97,WSW,242,0.0,0.0,100,0.00,,,0.00,0.12,VWS V14.01,2013-07-09 07:43:00,
2013-07-09 03:44:00,69.5,69.5,29.96,WSW,242,0.0,0.0,100,0.00,,,0.00,0.00,VWS V14.01,2013-07-09 07:44:00,
2013-07-09 03:46:00,69.2,69.2,29.96,WSW,242,0.0,0.0,100,0.00,,,0.00,0.00,VWS V14.01,2013-07-09 07:46:00,
2013-07-09 03:53:00,69.4,69.4,29.96,WSW,242,0.0,0.0,100,0.00,,,0.00,0.00,VWS V14.01,2013-07-09 07:53:00,
2013-07-09 03:54:00,69.4,69.4,29.96,WSW,242,0.0,0.0,100,0.00,,,0.00,0.00,VWS V14.01,2013-07-09 07:54:00,
2013-07-09 03:58:00,69.4,69.4,29.97,WSW,242,0.0,0.0,100,0.00,,,0.00,0.00,VWS V14.01,2013-07-09 07:58:00,
2013-07-09 03:59:00,69.3,69.3,29.97,WSW,242,0.0,0.0,100,0.00,,,0.00,0.12,VWS V14.01,2013-07-09 07:59:00,
2013-07-09 04:01:00,69.7,69.7,29.96,WSW,242,0.0,0.0,100,0.00,,,0.00,0.00,VWS V14.01,2013-07-09 08:01:00,
2013-07-09 04:04:00,69.6,69.3,29.96,WSW,242,0.0,0.0,99,0.00,,,0.00,0.00,VWS V14.01,2013-07-09 08:04:00,
2013-07-09 04:05:00,69.6,69.6,29.96,WSW,242,0.0,0.0,100,0.00,,,0.00,0.00,VWS V14.01,2013-07-09 08:05:00,
2013-07-09 04:06:00,69.7,69.7,29.96,WSW,242,0.0,0.0,100,0.00,,,0.00,0.00,VWS V14.01,2013-07-09 08:06:00,
2013-07-09 04:07:00,69.7,69.7,29.96,WSW,242,0.0,0.0,100,0.00,,,0.00,0.00,VWS V14.01,2013-07-09 08:07:00,
2013-07-09 04:09:00,69.4,69.4,29.96,WSW,242,0.0,0.0,100,0.00,,,0.00,0.00,VWS V14.01,2013-07-09 08:09:00,
2013-07-09 04:11:00,69.5,69.5,29.96,WSW,242,0.0,0.0,100,0.00,,,0.00,0.00,VWS V14.01,2013-07-09 08:11:00,
2013-07-09 04:12:00,69.4,69.4,29.96,WSW,242,0.0,0.0,100,0.00,,,0.00,0.00,VWS V14.01,2013-07-09 08:12:00,
2013-07-09 04:14:00,69.2,69.3,29.96,WSW,242,0.0,0.0,100,0.00,,,0.00,0.00,VWS V14.01,2013-07-09 08:14:00,
2013-07-09 04:16:00,68.9,68.9,29.95,WSW,242,0.0,0.0,100,0.00,,,0.00,0.00,VWS V14.01,2013-07-09 08:16:00,
2013-07-09 04:17:00,68.7,68.7,29.95,WSW,242,0.0,0.0,100,0.00,,,0.00,0.00,VWS V14.01,2013-07-09 08:17:00,
2013-07-09 04:18:00,69.4,69.4,29.95,WSW,242,0.0,0.0,100,0.00,,,0.00,0.00,VWS V14.01,2013-07-09 08:18:00,
2013-07-09 04:20:00,69.4,69.4,29.95,WSW,242,0.0,0.0,100,0.00,,,0.00,0.00,VWS V14.01,2013-07-09 08:20:00,
2013-07-09 04:22:00,69.6,69.6,29.96,WSW,242,0.0,0.0,100,0.00,,,0.00,0.00,VWS V14.01,2013-07-09 08:22:00,
2013-07-09 04:23:00,69.7,69.7,29.96,WSW,242,0.0,0.0,100,0.00,,,0.00,0.00,VWS V14.01,2013-07-09 08:23:00,
2013-07-09 04:24:00,69.8,69.8,29.96,WSW,242,0.0,0.0,100,0.00,,,0.00,0.00,VWS V14.01,2013-07-09 08:24:00,
2013-07-09 04:27:00,69.8,69.8,29.97,WSW,242,0.0,0.0,100,0.00,,,0.00,0.00,VWS V14.01,2013-07-09 08:27:00,
2013-07-09 04:28:00,69.7,69.7,29.97,WSW,242,0.0,0.0,100,0.00,,,0.00,0.00,VWS V14.01,2013-07-09 08:28:00,
2013-07-09 04:30:00,69.3,69.3,29.96,WSW,242,0.0,0.0,100,0.00,,,0.00,0.00,VWS V14.01,2013-07-09 08:30:00,
2013-07-09 04:32:00,68.9,68.9,29.96,WSW,242,0.0,0.0,100,0.00,,,0.00,0.00,VWS V14.01,2013-07-09 08:32:00,
2013-07-09 04:34:00,69.1,69.1,29.96,WSW,242,0.0,0.0,100,0.00,,,0.00,0.00,VWS V14.01,2013-07-09 08:34:00,
2013-07-09 04:35:00,69.1,69.1,29.96,WSW,242,0.0,0.0,100,0.00,,,0.00,0.00,VWS V14.01,2013-07-09 08:35:00,
2013-07-09 04:36:00,69.3,69.3,29.95,WSW,242,0.0,0.0,100,0.00,,,0.00,0.00,VWS V14.01,2013-07-09 08:36:00,
2013-07-09 04:37:00,69.3,69.3,29.95,WSW,242,0.0,0.0,100,0.00,,,0.00,0.00,VWS V14.01,2013-07-09 08:37:00,
2013-07-09 04:39:00,68.9,68.9,29.96,WSW,242,0.0,0.0,100,0.00,,,0.00,0.00,VWS V14.01,2013-07-09 08:39:00,
2013-07-09 04:41:00,68.8,68.8,29.96,WSW,242,0.0,0.0,100,0.00,,,0.00,0.00,VWS V14.01,2013-07-09 08:41:00,
2013-07-09 04:42:00,68.9,68.9,29.96,WSW,242,0.0,0.0,100,0.00,,,0.00,0.00,VWS V14.01,2013-07-09 08:42:00,
2013-07-09 04:43:00,68.9,68.9,29.96,West,259,0.0,0.0,100,0.00,,,0.00,0.00,VWS V14.01,2013-07-09 08:43:00,
2013-07-09 04:45:00,68.7,68.7,29.96,West,268,0.0,0.0,100,0.00,,,0.00,0.00,VWS V14.01,2013-07-09 08:45:00,
2013-07-09 04:47:00,68.5,68.5,29.96,WNW,282,0.0,0.0,100,0.00,,,0.00,0.00,VWS V14.01,2013-07-09 08:47:00,
2013-07-09 04:48:00,68.5,68.5,29.96,WNW,282,0.0,0.0,100,0.00,,,0.00,0.12,VWS V14.01,2013-07-09 08:48:00,
2013-07-09 04:49:00,68.3,68.3,29.96,WNW,297,0.0,0.0,100,0.00,,,0.00,0.00,VWS V14.01,2013-07-09 08:49:00,
2013-07-09 04:51:00,68.2,68.2,29.96,WNW,297,0.0,0.0,100,0.00,,,0.00,0.00,VWS V14.01,2013-07-09 08:51:00,
2013-07-09 04:53:00,68.3,68.3,29.95,WNW,297,0.0,0.0,100,0.00,,,0.00,0.00,VWS V14.01,2013-07-09 08:53:00,
2013-07-09 04:54:00,68.4,68.4,29.95,WNW,297,0.0,0.0,100,0.00,,,0.00,0.00,VWS V14.01,2013-07-09 08:54:00,
2013-07-09 04:56:00,69.0,69.0,29.96,WNW,283,0.0,0.0,100,0.00,,,0.00,0.00,VWS V14.01,2013-07-09 08:56:00,
2013-07-09 04:57:00,68.4,68.4,29.96,WNW,283,0.0,0.0,100,0.00,,,0.00,0.12,VWS V14.01,2013-07-09 08:57:00,
2013-07-09 05:00:00,68.2,68.2,29.94,WNW,283,0.0,0.0,100,0.00,,,0.00,0.73,VWS V14.01,2013-07-09 09:00:00,
2013-07-09 05:01:00,67.6,67.6,29.95,WNW,283,0.0,0.0,100,0.00,,,0.00,0.00,VWS V14.01,2013-07-09 09:01:00,
2013-07-09 05:02:00,68.2,68.3,29.97,WNW,283,0.0,0.0,100,0.00,,,0.00,0.00,VWS V14.01,2013-07-09 09:02:00,
2013-07-09 05:05:00,67.8,67.4,29.96,West,272,0.0,0.0,99,0.00,,,0.00,0.00,VWS V14.01,2013-07-09 09:05:00,
2013-07-09 05:06:00,67.8,67.8,29.96,West,272,0.0,0.0,100,0.00,,,0.00,0.00,VWS V14.01,2013-07-09 09:06:00,
2013-07-09 05:07:00,67.5,67.5,29.96,West,272,0.0,0.0,100,0.00,,,0.00,0.00,VWS V14.01,2013-07-09 09:07:00,
2013-07-09 05:09:00,68.6,68.6,29.96,West,272,0.0,0.0,100,0.00,,,0.00,0.00,VWS V14.01,2013-07-09 09:09:00,
2013-07-09 05:11:00,67.5,67.5,29.96,West,272,0.0,0.0,100,0.00,,,0.00,0.00,VWS V14.01,2013-07-09 09:11:00,
2013-07-09 05:12:00,67.3,67.3,29.95,WNW,283,0.0,0.0,100,0.00,,,0.00,0.00,VWS V14.01,2013-07-09 09:12:00,
2013-07-09 05:14:00,67.9,67.9,29.96,WNW,283,0.0,0.0,100,0.00,,,0.00,0.00,VWS V14.01,2013-07-09 09:14:00,
2013-07-09 05:15:00,67.9,67.9,29.95,WNW,283,0.0,0.0,100,0.00,,,0.00,0.43,VWS V14.01,2013-07-09 09:15:00,
2013-07-09 05:17:00,68.2,68.2,29.96,WNW,283,0.0,0.0,100,0.00,,,0.00,0.00,VWS V14.01,2013-07-09 09:17:00,
2013-07-09 05:18:00,68.2,68.2,29.96,WNW,283,0.0,0.0,100,0.00,,,0.00,0.00,VWS V14.01,2013-07-09 09:18:00,
2013-07-09 05:20:00,68.1,68.1,29.96,WNW,283,0.0,0.0,100,0.00,,,0.00,0.00,VWS V14.01,2013-07-09 09:20:00,
2013-07-09 05:22:00,68.2,68.2,29.96,WNW,283,0.0,0.0,100,0.00,,,0.00,0.00,VWS V14.01,2013-07-09 09:22:00,
2013-07-09 05:23:00,68.2,68.2,29.96,WNW,283,0.0,0.0,100,0.00,,,0.00,0.00,VWS V14.01,2013-07-09 09:23:00,
2013-07-09 05:26:00,68.2,68.2,29.96,WNW,283,0.0,0.0,100,0.00,,,0.00,0.12,VWS V14.01,2013-07-09 09:26:00,
2013-07-09 05:28:00,68.0,68.0,29.96,WNW,283,0.0,0.0,100,0.00,,,0.00,0.00,VWS V14.01,2013-07-09 09:28:00,
2013-07-09 05:29:00,68.0,68.0,29.96,WNW,283,0.0,0.0,100,0.00,,,0.00,0.00,VWS V14.01,2013-07-09 09:29:00,
2013-07-09 05:30:00,68.1,68.1,29.96,WNW,283,0.0,0.0,100,0.00,,,0.00,0.00,VWS V14.01,2013-07-09 09:30:00,
2013-07-09 05:34:00,68.6,68.6,29.95,WNW,283,0.0,0.0,100,0.00,,,0.00,0.43,VWS V14.01,2013-07-09 09:34:00,
2013-07-09 05:35:00,68.9,68.9,29.96,WNW,283,0.0,0.0,100,0.00,,,0.00,0.00,VWS V14.01,2013-07-09 09:35:00,
2013-07-09 05:36:00,68.8,68.8,29.96,WNW,283,0.0,0.0,100,0.00,,,0.00,0.00,VWS V14.01,2013-07-09 09:36:00,
2013-07-09 05:38:00,68.9,68.9,29.97,WNW,283,0.0,0.0,100,0.00,,,0.00,0.00,VWS V14.01,2013-07-09 09:38:00,
2013-07-09 05:40:00,68.7,68.7,29.96,WNW,283,0.0,0.0,100,0.00,,,0.00,0.00,VWS V14.01,2013-07-09 09:40:00,
2013-07-09 05:41:00,68.7,68.7,29.95,WNW,283,0.0,0.0,100,0.00,,,0.00,0.00,VWS V14.01,2013-07-09 09:41:00,
2013-07-09 05:44:00,68.5,68.5,29.95,WNW,283,0.0,0.0,100,0.00,,,0.00,0.00,VWS V14.01,2013-07-09 09:44:00,
2013-07-09 05:45:00,68.4,68.4,29.95,WNW,283,0.0,0.0,100,0.00,,,0.00,0.00,VWS V14.01,2013-07-09 09:45:00,
2013-07-09 05:47:00,68.3,68.3,29.96,WNW,283,0.0,0.0,100,0.00,,,0.00,0.00,VWS V14.01,2013-07-09 09:47:00,
2013-07-09 05:48:00,68.4,68.4,29.96,WNW,283,0.0,0.0,100,0.00,,,0.00,0.00,VWS V14.01,2013-07-09 09:48:00,
2013-07-09 05:50:00,68.3,68.4,29.96,West,280,0.0,0.0,100,0.00,,,0.00,0.43,VWS V14.01,2013-07-09 09:50:00,
2013-07-09 05:51:00,68.3,68.3,29.95,West,280,0.0,0.0,100,0.00,,,0.00,0.00,VWS V14.01,2013-07-09 09:51:00,
2013-07-09 05:52:00,68.2,68.2,29.95,West,280,0.0,0.0,100,0.00,,,0.00,0.00,VWS V14.01,2013-07-09 09:52:00,
2013-07-09 05:54:00,67.8,67.9,29.95,WNW,292,0.0,0.0,100,0.00,,,0.00,0.00,VWS V14.01,2013-07-09 09:54:00,
2013-07-09 05:55:00,68.1,68.1,29.97,WNW,292,0.0,0.0,100,0.00,,,0.00,0.00,VWS V14.01,2013-07-09 09:55:00,
2013-07-09 05:57:00,67.6,67.6,29.96,WNW,292,0.0,0.0,100,0.00,,,0.00,0.06,VWS V14.01,2013-07-09 09:57:00,
2013-07-09 05:59:00,67.4,67.4,29.97,WNW,285,0.0,0.0,100,0.00,,,0.00,0.00,VWS V14.01,2013-07-09 09:59:00,
2013-07-09 06:01:00,67.7,67.7,29.96,WNW,285,0.0,0.0,100,0.00,,,0.00,0.00,VWS V14.01,2013-07-09 10:01:00,
2013-07-09 06:03:00,68.2,68.2,29.95,WNW,283,0.0,0.0,100,0.00,,,0.00,0.55,VWS V14.01,2013-07-09 10:03:00,
2013-07-09 06:06:00,67.8,67.8,29.97,WNW,294,0.0,0.0,100,0.00,,,0.00,1.71,VWS V14.01,2013-07-09 10:06:00,
2013-07-09 06:07:00,67.7,67.7,29.97,WNW,294,0.0,0.0,100,0.00,,,0.00,1.71,VWS V14.01,2013-07-09 10:07:00,
2013-07-09 06:08:00,67.3,67.3,29.96,WNW,294,0.0,0.0,100,0.00,,,0.00,2.56,VWS V14.01,2013-07-09 10:08:00,
2013-07-09 06:11:00,67.3,67.3,29.96,WNW,294,0.0,0.0,100,0.00,,,0.00,2.26,VWS V14.01,2013-07-09 10:11:00,
2013-07-09 06:13:00,67.6,67.6,29.96,WNW,294,0.0,0.0,100,0.00,,,0.00,2.87,VWS V14.01,2013-07-09 10:13:00,
2013-07-09 06:15:00,67.7,67.7,29.96,WNW,294,0.0,0.0,100,0.00,,,0.00,3.48,VWS V14.01,2013-07-09 10:15:00,
2013-07-09 06:16:00,67.7,67.7,29.96,WNW,294,0.0,0.0,100,0.00,,,0.00,4.15,VWS V14.01,2013-07-09 10:16:00,
2013-07-09 06:17:00,67.7,67.8,29.97,WNW,294,0.0,0.0,100,0.00,,,0.00,4.40,VWS V14.01,2013-07-09 10:17:00,
2013-07-09 06:18:00,67.8,67.8,29.97,WNW,294,0.0,0.0,100,0.00,,,0.00,4.95,VWS V14.01,2013-07-09 10:18:00,
2013-07-09 06:19:00,67.4,67.4,29.96,WNW,294,0.0,0.0,100,0.00,,,0.00,5.19,VWS V14.01,2013-07-09 10:19:00,
2013-07-09 06:20:00,67.5,67.5,29.97,WNW,294,0.0,0.0,100,0.00,,,0.00,6.65,VWS V14.01,2013-07-09 10:20:00,
2013-07-09 06:21:00,67.6,67.6,29.96,WNW,294,0.0,0.0,100,0.00,,,0.00,7.75,VWS V14.01,2013-07-09 10:21:00,
2013-07-09 06:24:00,68.0,68.0,29.96,WNW,286,0.0,0.0,100,0.00,,,0.00,9.95,VWS V14.01,2013-07-09 10:24:00,
2013-07-09 06:26:00,68.0,68.0,29.97,WNW,286,1.0,1.0,100,0.00,,,0.00,9.52,VWS V14.01,2013-07-09 10:26:00,
2013-07-09 06:28:00,67.4,67.4,29.96,WNW,287,0.0,1.1,100,0.00,,,0.00,11.72,VWS V14.01,2013-07-09 10:28:00,
2013-07-09 06:30:00,67.6,67.6,29.97,WNW,287,1.0,1.1,100,0.00,,,0.00,12.03,VWS V14.01,2013-07-09 10:30:00,
2013-07-09 06:31:00,68.2,68.2,29.97,West,273,1.0,1.1,100,0.00,,,0.00,12.76,VWS V14.01,2013-07-09 10:31:00,
2013-07-09 06:33:00,68.1,68.1,29.97,West,273,1.5,1.5,100,0.00,,,0.00,15.32,VWS V14.01,2013-07-09 10:33:00,
2013-07-09 06:34:00,68.2,68.2,29.97,West,273,1.1,1.5,100,0.00,,,0.00,15.45,VWS V14.01,2013-07-09 10:34:00,
2013-07-09 06:35:00,68.4,68.2,29.97,West,273,2.2,2.2,99,0.00,,,0.00,16.91,VWS V14.01,2013-07-09 10:35:00,
2013-07-09 06:36:00,68.5,68.5,29.97,West,273,1.8,2.2,100,0.00,,,0.00,16.00,VWS V14.01,2013-07-09 10:36:00,
2013-07-09 06:38:00,68.3,68.3,29.97,West,273,0.0,2.2,100,0.00,,,0.00,16.91,VWS V14.01,2013-07-09 10:38:00,
2013-07-09 06:39:00,68.6,68.6,29.97,West,272,0.0,2.2,100,0.00,,,0.00,17.22,VWS V14.01,2013-07-09 10:39:00,
2013-07-09 06:41:00,68.2,68.2,29.97,WNW,283,0.0,2.2,100,0.00,,,0.00,20.09,VWS V14.01,2013-07-09 10:41:00,
2013-07-09 06:43:00,69.3,69.3,29.97,West,262,0.0,2.2,100,0.00,,,0.00,22.10,VWS V14.01,2013-07-09 10:43:00,
2013-07-09 06:44:00,68.8,68.8,29.97,West,277,0.0,2.2,100,0.00,,,0.00,23.38,VWS V14.01,2013-07-09 10:44:00,
2013-07-09 06:46:00,69.0,69.0,29.97,West,279,0.0,2.2,100,0.00,,,0.00,24.48,VWS V14.01,2013-07-09 10:46:00,
2013-07-09 06:47:00,69.1,69.1,29.97,WNW,288,0.0,2.2,100,0.00,,,0.00,25.95,VWS V14.01,2013-07-09 10:47:00,
2013-07-09 06:49:00,69.2,69.2,29.97,WNW,289,0.0,2.2,100,0.00,,,0.00,29.55,VWS V14.01,2013-07-09 10:49:00,
2013-07-09 06:51:00,68.8,68.8,29.97,WNW,289,0.0,2.2,100,0.00,,,0.00,33.70,VWS V14.01,2013-07-09 10:51:00,
2013-07-09 06:52:00,69.0,69.0,29.97,WNW,289,0.0,2.2,100,0.00,,,0.00,33.70,VWS V14.01,2013-07-09 10:52:00,
2013-07-09 06:53:00,68.8,68.8,29.98,WNW,289,0.0,2.2,100,0.00,,,0.00,34.49,VWS V14.01,2013-07-09 10:53:00,
2013-07-09 06:54:00,69.2,69.2,29.98,WNW,285,0.0,2.2,100,0.00,,,0.00,36.51,VWS V14.01,2013-07-09 10:54:00,
2013-07-09 06:56:00,69.5,69.5,29.97,WNW,282,0.0,2.2,100,0.00,,,0.00,38.16,VWS V14.01,2013-07-09 10:56:00,
2013-07-09 06:58:00,69.2,69.2,29.98,WNW,282,0.0,2.2,100,0.00,,,0.00,41.64,VWS V14.01,2013-07-09 10:58:00,
2013-07-09 06:59:00,69.4,69.4,29.98,WNW,302,0.0,2.2,100,0.00,,,0.00,43.53,VWS V14.01,2013-07-09 10:59:00,
2013-07-09 07:00:00,69.4,69.4,29.98,WNW,302,0.0,2.2,100,0.00,,,0.00,43.53,VWS V14.01,2013-07-09 11:00:00,
2013-07-09 07:04:00,69.8,69.8,29.97,WNW,295,1.1,1.1,100,0.00,,,0.00,48.96,VWS V14.01,2013-07-09 11:04:00,
2013-07-09 07:05:00,69.6,69.6,29.97,WNW,287,0.0,1.0,100,0.00,,,0.00,48.35,VWS V14.01,2013-07-09 11:05:00,
2013-07-09 07:06:00,69.5,69.5,29.98,WNW,299,0.0,0.0,100,0.00,,,0.00,44.02,VWS V14.01,2013-07-09 11:06:00,
2013-07-09 07:07:00,69.8,69.8,29.98,WNW,295,1.1,1.1,100,0.00,,,0.00,49.27,VWS V14.01,2013-07-09 11:07:00,
2013-07-09 07:11:00,70.0,70.0,29.98,West,277,0.0,0.0,100,0.00,,,0.00,60.62,VWS V14.01,2013-07-09 11:11:00,
2013-07-09 07:12:00,69.9,69.3,29.97,WNW,290,0.0,0.0,98,0.00,,,0.00,63.80,VWS V14.01,2013-07-09 11:12:00,
2013-07-09 07:14:00,70.3,70.3,29.98,West,265,0.0,0.0,100,0.00,,,0.00,65.75,VWS V14.01,2013-07-09 11:14:00,
2013-07-09 07:16:00,70.6,70.6,29.97,West,265,0.0,0.0,100,0.00,,,0.00,75.52,VWS V14.01,2013-07-09 11:16:00,
2013-07-09 07:17:00,70.6,70.6,29.97,West,264,0.0,0.0,100,0.00,,,0.00,77.72,VWS V14.01,2013-07-09 11:17:00,
2013-07-09 07:19:00,70.7,70.7,29.98,WSW,248,0.0,1.6,100,0.00,,,0.00,82.84,VWS V14.01,2013-07-09 11:19:00,
2013-07-09 07:21:00,71.0,71.1,29.97,West,259,0.0,0.0,100,0.00,,,0.00,86.39,VWS V14.01,2013-07-09 11:21:00,
2013-07-09 07:23:00,71.2,71.2,29.97,WSW,255,0.0,2.2,100,0.00,,,0.00,88.40,VWS V14.01,2013-07-09 11:23:00,
2013-07-09 07:24:00,71.3,71.3,29.98,West,264,2.8,2.8,100,0.00,,,0.00,90.17,VWS V14.01,2013-07-09 11:24:00,
2013-07-09 07:25:00,71.5,71.5,29.97,WSW,254,0.0,2.8,100,0.00,,,0.00,92.61,VWS V14.01,2013-07-09 11:25:00,
2013-07-09 07:27:00,71.8,71.8,29.98,WSW,254,2.2,3.0,100,0.00,,,0.00,100.55,VWS V14.01,2013-07-09 11:27:00,
2013-07-09 07:28:00,72.2,72.2,29.97,WSW,257,3.7,3.7,100,0.00,,,0.00,100.24,VWS V14.01,2013-07-09 11:28:00,
2013-07-09 07:30:00,72.4,72.4,29.96,WSW,239,3.5,3.5,100,0.00,,,0.00,99.94,VWS V14.01,2013-07-09 11:30:00,
2013-07-09 07:32:00,72.4,72.4,29.96,West,267,2.3,2.3,100,0.00,,,0.00,103.48,VWS V14.01,2013-07-09 11:32:00,
2013-07-09 07:33:00,72.5,72.5,29.96,West,272,2.7,2.7,100,0.00,,,0.00,105.13,VWS V14.01,2013-07-09 11:33:00,
2013-07-09 07:34:00,72.6,72.6,29.96,West,260,1.6,2.7,100,0.00,,,0.00,109.71,VWS V14.01,2013-07-09 11:34:00,
2013-07-09 07:35:00,72.6,72.6,29.97,West,259,2.0,2.0,100,0.00,,,0.00,112.15,VWS V14.01,2013-07-09 11:35:00,
2013-07-09 07:36:00,72.5,72.5,29.97,West,263,2.7,2.7,100,0.00,,,0.00,112.15,VWS V14.01,2013-07-09 11:36:00,
2013-07-09 07:38:00,72.6,72.6,29.97,West,280,4.2,4.2,100,0.00,,,0.00,121.92,VWS V14.01,2013-07-09 11:38:00,
2013-07-09 07:40:00,72.7,72.7,29.97,West,273,2.0,3.4,100,0.00,,,0.00,120.09,VWS V14.01,2013-07-09 11:40:00,
2013-07-09 07:44:00,72.6,72.6,29.96,West,278,2.7,4.4,100,0.00,,,0.00,97.50,VWS V14.01,2013-07-09 11:44:00,
2013-07-09 07:45:00,72.5,72.5,29.96,WSW,256,1.6,1.6,100,0.00,,,0.00,97.74,VWS V14.01,2013-07-09 11:45:00,
2013-07-09 07:46:00,72.5,72.5,29.96,West,266,3.9,3.9,100,0.00,,,0.00,95.06,VWS V14.01,2013-07-09 11:46:00,
2013-07-09 07:47:00,72.6,72.6,29.97,West,273,2.8,2.8,100,0.00,,,0.00,89.38,VWS V14.01,2013-07-09 11:47:00,
2013-07-09 07:49:00,72.7,72.7,29.97,WSW,255,2.2,2.7,100,0.00,,,0.00,96.52,VWS V14.01,2013-07-09 11:49:00,
2013-07-09 07:50:00,72.8,72.8,29.97,West,270,2.2,2.2,100,0.00,,,0.00,109.71,VWS V14.01,2013-07-09 11:50:00,
2013-07-09 07:51:00,72.8,72.8,29.97,West,273,4.2,4.2,100,0.00,,,0.00,122.53,VWS V14.01,2013-07-09 11:51:00,
2013-07-09 07:52:00,72.9,72.9,29.97,West,272,4.2,5.7,100,0.00,,,0.00,117.03,VWS V14.01,2013-07-09 11:52:00,
2013-07-09 07:54:00,73.3,73.3,29.97,West,274,2.8,3.5,100,0.00,,,0.00,156.11,VWS V14.01,2013-07-09 11:54:00,
2013-07-09 07:56:00,73.2,73.2,29.98,West,276,4.7,6.1,100,0.00,,,0.00,139.01,VWS V14.01,2013-07-09 11:56:00,
2013-07-09 07:57:00,73.3,73.3,29.97,WNW,286,4.2,4.2,100,0.00,,,0.00,134.13,VWS V14.01,2013-07-09 11:57:00,
2013-07-09 07:58:00,73.3,73.3,29.97,West,277,4.0,4.7,100,0.00,,,0.00,139.26,VWS V14.01,2013-07-09 11:58:00,
2013-07-09 08:00:00,73.2,73.2,29.97,West,273,5.4,5.9,100,0.00,,,0.00,131.56,VWS V14.01,2013-07-09 12:00:00,
2013-07-09 08:01:00,73.4,73.4,29.98,West,276,4.0,4.0,100,0.00,,,0.00,119.47,VWS V14.01,2013-07-09 12:01:00,
2013-07-09 08:02:00,73.4,73.4,29.99,WNW,282,3.4,4.0,100,0.00,,,0.00,114.59,VWS V14.01,2013-07-09 12:02:00,
2013-07-09 08:03:00,73.3,73.3,29.98,West,259,3.5,3.9,100,0.00,,,0.00,117.77,VWS V14.01,2013-07-09 12:03:00,
2013-07-09 08:05:00,73.1,73.1,29.97,West,272,5.1,5.1,100,0.00,,,0.00,112.45,VWS V14.01,2013-07-09 12:05:00,
2013-07-09 08:07:00,73.1,73.0,29.98,West,267,4.0,4.7,100,0.00,,,0.00,107.26,VWS V14.01,2013-07-09 12:07:00,
2013-07-09 08:08:00,73.3,73.2,29.98,West,260,4.4,5.4,100,0.00,,,0.00,110.32,VWS V14.01,2013-07-09 12:08:00,
2013-07-09 08:09:00,73.3,73.2,29.97,West,262,4.5,4.5,100,0.00,,,0.00,109.71,VWS V14.01,2013-07-09 12:09:00,
2013-07-09 08:12:00,73.1,72.8,29.97,WNW,301,7.1,7.1,99,0.00,,,0.00,104.33,VWS V14.01,2013-07-09 12:12:00,
2013-07-09 08:13:00,73.3,73.0,29.96,West,273,5.1,7.1,99,0.00,,,0.00,99.94,VWS V14.01,2013-07-09 12:13:00,
2013-07-09 08:14:00,73.2,72.9,29.96,West,275,6.4,6.4,99,0.00,,,0.00,112.39,VWS V14.01,2013-07-09 12:14:00,
2013-07-09 08:16:00,73.4,73.1,29.97,West,269,5.1,5.1,99,0.00,,,0.00,145.12,VWS V14.01,2013-07-09 12:16:00,
2013-07-09 08:19:00,73.4,73.1,29.97,West,267,5.7,5.7,99,0.00,,,0.00,126.80,VWS V14.01,2013-07-09 12:19:00,
2013-07-09 08:20:00,73.6,73.1,29.97,West,271,3.9,5.7,99,0.00,,,0.00,125.70,VWS V14.01,2013-07-09 12:20:00,
2013-07-09 08:21:00,73.7,73.2,29.97,WNW,284,6.9,6.9,98,0.00,,,0.00,125.64,VWS V14.01,2013-07-09 12:21:00,
2013-07-09 08:24:00,73.9,73.3,29.97,West,268,4.2,5.6,98,0.00,,,0.00,179.30,VWS V14.01,2013-07-09 12:24:00,
2013-07-09 08:25:00,73.9,73.1,29.97,WNW,286,5.9,6.4,97,0.00,,,0.00,177.23,VWS V14.01,2013-07-09 12:25:00,
2013-07-09 08:27:00,74.0,73.2,29.97,WNW,296,5.2,5.2,97,0.00,,,0.00,178.08,VWS V14.01,2013-07-09 12:27:00,
2013-07-09 08:30:00,73.9,73.0,29.96,West,272,3.2,5.7,97,0.00,,,0.00,141.45,VWS V14.01,2013-07-09 12:30:00,
2013-07-09 08:31:00,74.1,73.1,29.97,WNW,291,4.5,6.8,97,0.00,,,0.00,136.32,VWS V14.01,2013-07-09 12:31:00,
2013-07-09 08:32:00,73.9,72.9,29.97,NW,305,5.2,7.1,97,0.00,,,0.00,150.00,VWS V14.01,2013-07-09 12:32:00,
2013-07-09 08:33:00,73.9,72.8,29.97,West,272,6.3,6.3,96,0.00,,,0.00,159.04,VWS V14.01,2013-07-09 12:33:00,
2013-07-09 08:36:00,73.9,72.7,29.97,West,270,7.6,7.6,96,0.00,,,0.00,131.44,VWS V14.01,2013-07-09 12:36:00,
2013-07-09 08:39:00,73.9,72.6,29.98,West,271,6.8,6.8,96,0.00,,,0.00,163.43,VWS V14.01,2013-07-09 12:39:00,
2013-07-09 08:41:00,74.1,72.8,29.97,West,275,6.3,6.8,96,0.00,,,0.00,134.13,VWS V14.01,2013-07-09 12:41:00,
2013-07-09 08:42:00,74.1,72.8,29.97,West,275,6.3,6.8,96,0.00,,,0.00,134.13,VWS V14.01,2013-07-09 12:42:00,
2013-07-09 08:43:00,74.0,72.6,29.98,West,261,5.2,6.9,95,0.00,,,0.00,149.08,VWS V14.01,2013-07-09 12:43:00,
2013-07-09 08:44:00,74.1,72.9,29.97,West,264,3.9,3.9,96,0.00,,,0.00,140.42,VWS V14.01,2013-07-09 12:44:00,
2013-07-09 08:45:00,73.9,72.5,29.97,West,261,6.3,6.3,95,0.00,,,0.00,134.86,VWS V14.01,2013-07-09 12:45:00,
2013-07-09 08:47:00,74.2,72.8,29.98,West,267,4.5,8.0,95,0.00,,,0.00,145.60,VWS V14.01,2013-07-09 12:47:00,
2013-07-09 08:48:00,74.1,72.7,29.98,WNW,282,4.2,4.5,96,0.00,,,0.00,134.13,VWS V14.01,2013-07-09 12:48:00,
2013-07-09 08:49:00,74.0,72.7,29.98,West,276,4.5,4.5,96,0.00,,,0.00,137.48,VWS V14.01,2013-07-09 12:49:00,
2013-07-09 08:50:00,74.2,72.7,29.98,WSW,254,3.4,5.6,95,0.00,,,0.00,163.43,VWS V14.01,2013-07-09 12:50:00,
2013-07-09 08:51:00,74.3,73.0,29.98,West,275,1.8,3.4,96,0.00,,,0.00,175.64,VWS V14.01,2013-07-09 12:51:00,
2013-07-09 08:53:00,74.3,72.4,29.96,West,274,4.2,7.6,94,0.00,,,0.00,158.55,VWS V14.01,2013-07-09 12:53:00,
2013-07-09 08:54:00,74.2,72.3,29.98,WNW,283,7.1,7.1,94,0.00,,,0.00,146.34,VWS V14.01,2013-07-09 12:54:00,
2013-07-09 08:56:00,74.3,72.6,29.98,WSW,253,5.2,7.3,94,0.00,,,0.00,139.01,VWS V14.01,2013-07-09 12:56:00,
2013-07-09 08:58:00,74.3,72.6,29.97,WNW,291,4.0,4.0,94,0.00,,,0.00,128.88,VWS V14.01,2013-07-09 12:58:00,
2013-07-09 08:59:00,74.3,72.2,29.98,West,273,5.6,7.8,93,0.00,,,0.00,125.82,VWS V14.01,2013-07-09 12:59:00,
2013-07-09 09:00:00,74.4,72.6,29.97,West,266,3.5,5.6,94,0.00,,,0.00,122.22,VWS V14.01,2013-07-09 13:00:00,
2013-07-09 09:03:00,74.2,72.5,29.98,WNW,291,3.9,6.1,94,0.00,,,0.00,131.69,VWS V14.01,2013-07-09 13:03:00,
2013-07-09 09:04:00,74.4,72.2,29.98,WNW,297,7.1,8.1,93,0.00,,,0.00,135.04,VWS V14.01,2013-07-09 13:04:00,
2013-07-09 09:05:00,74.3,72.1,29.98,WNW,282,6.9,8.1,93,0.00,,,0.00,134.62,VWS V14.01,2013-07-09 13:05:00,
2013-07-09 09:06:00,74.3,71.9,29.98,West,278,6.4,6.4,92,0.00,,,0.00,146.83,VWS V14.01,2013-07-09 13:06:00,
2013-07-09 09:08:00,74.5,70.3,29.97,West,271,6.8,6.8,87,0.00,,,0.04,175.15,VWS V14.01,2013-07-09 13:08:00,
2013-07-09 09:09:00,74.4,72.0,29.98,West,277,6.3,6.8,92,0.00,,,0.00,173.20,VWS V14.01,2013-07-09 13:09:00,
2013-07-09 09:10:00,74.8,72.2,29.98,West,265,6.6,6.6,92,0.00,,,0.00,170.76,VWS V14.01,2013-07-09 13:10:00,
2013-07-09 09:12:00,74.7,71.8,29.97,West,274,6.9,7.1,91,0.00,,,0.00,203.11,VWS V14.01,2013-07-09 13:12:00,
2013-07-09 09:13:00,74.7,71.8,29.97,West,274,6.9,7.1,91,0.00,,,0.00,203.11,VWS V14.01,2013-07-09 13:13:00,
2013-07-09 09:15:00,74.9,72.2,29.97,West,280,3.7,5.7,91,0.00,,,0.00,213.00,VWS V14.01,2013-07-09 13:15:00,
2013-07-09 09:16:00,74.8,71.6,29.97,West,277,5.9,5.9,90,0.00,,,0.00,211.36,VWS V14.01,2013-07-09 13:16:00,
2013-07-09 09:17:00,75.0,71.3,29.97,West,271,5.9,6.6,88,0.00,,,0.00,283.33,VWS V14.01,2013-07-09 13:17:00,
2013-07-09 09:18:00,75.0,70.9,29.97,West,274,7.6,7.6,87,0.00,,,0.00,323.38,VWS V14.01,2013-07-09 13:18:00,
2013-07-09 09:20:00,75.4,71.7,29.97,West,270,4.7,7.3,88,0.00,,,0.00,229.06,VWS V14.01,2013-07-09 13:20:00,
2013-07-09 09:22:00,75.2,70.3,29.98,WNW,288,6.6,7.6,85,0.00,,,0.00,251.34,VWS V14.01,2013-07-09 13:22:00,
2013-07-09 09:23:00,76.1,71.8,29.99,WNW,289,4.4,7.6,87,0.00,,,0.00,446.95,VWS V14.01,2013-07-09 13:23:00,
2013-07-09 09:24:00,75.9,71.7,29.97,NW,314,4.9,5.4,87,0.00,,,0.00,273.32,VWS V14.01,2013-07-09 13:24:00,
2013-07-09 09:25:00,75.8,70.9,29.98,West,272,4.7,6.1,85,0.00,,,0.00,316.24,VWS V14.01,2013-07-09 13:25:00,
2013-07-09 09:26:00,75.7,71.0,29.98,West,281,4.7,5.1,85,0.00,,,0.00,292.86,VWS V14.01,2013-07-09 13:26:00,
2013-07-09 09:30:00,76.4,71.5,29.98,WNW,290,3.7,6.1,85,0.00,,,0.00,256.23,VWS V14.01,2013-07-09 13:30:00,
2013-07-09 09:31:00,76.7,71.8,29.97,NW,311,4.7,4.7,85,0.00,,,0.00,429.61,VWS V14.01,2013-07-09 13:31:00,
2013-07-09 09:32:00,75.9,69.6,29.98,WNW,283,7.3,7.3,81,0.00,,,0.00,267.70,VWS V14.01,2013-07-09 13:32:00,
2013-07-09 09:36:00,76.4,69.3,29.98,West,273,6.9,6.9,79,0.00,,,0.00,483.33,VWS V14.01,2013-07-09 13:36:00,
2013-07-09 09:38:00,76.3,69.4,29.98,West,266,7.1,7.1,79,0.00,,,0.00,246.46,VWS V14.01,2013-07-09 13:38:00,
2013-07-09 09:39:00,76.3,69.4,29.98,West,266,7.1,7.1,79,0.00,,,0.00,246.46,VWS V14.01,2013-07-09 13:39:00,
2013-07-09 09:43:00,76.7,69.4,29.98,WNW,299,5.9,5.9,78,0.00,,,0.00,523.14,VWS V14.01,2013-07-09 13:43:00,
2013-07-09 09:44:00,76.3,68.2,29.98,West,277,7.5,7.5,76,0.00,,,0.00,358.79,VWS V14.01,2013-07-09 13:44:00,
2013-07-09 09:46:00,76.3,68.0,29.97,WNW,288,7.8,7.8,75,0.00,,,0.00,278.45,VWS V14.01,2013-07-09 13:46:00,
2013-07-09 09:49:00,77.4,69.6,29.97,WNW,300,4.7,8.1,77,0.00,,,0.00,554.88,VWS V14.01,2013-07-09 13:49:00,
2013-07-09 09:50:00,77.3,70.0,29.97,WNW,294,5.2,5.2,78,0.00,,,0.00,414.96,VWS V14.01,2013-07-09 13:50:00,
2013-07-09 09:51:00,76.9,68.9,29.97,NW,304,6.1,6.1,76,0.00,,,0.00,362.45,VWS V14.01,2013-07-09 13:51:00,
2013-07-09 09:52:00,76.1,67.5,29.97,West,276,6.1,8.8,75,0.00,,,0.00,249.33,VWS V14.01,2013-07-09 13:52:00,
2013-07-09 09:55:00,76.5,67.7,29.98,WNW,288,4.2,5.1,74,0.00,,,0.00,255.31,VWS V14.01,2013-07-09 13:55:00,
2013-07-09 09:56:00,76.5,68.7,29.98,West,270,6.3,6.3,77,0.00,,,0.00,261.97,VWS V14.01,2013-07-09 13:56:00,
2013-07-09 09:59:00,76.7,68.1,29.96,WNW,296,6.8,6.8,75,0.00,,,0.00,258.97,VWS V14.01,2013-07-09 13:59:00,
2013-07-09 10:00:00,76.8,68.6,29.97,West,275,5.1,6.8,76,0.00,,,0.00,269.05,VWS V14.01,2013-07-09 14:00:00,
2013-07-09 10:01:00,76.8,69.0,29.97,WNW,290,4.2,5.1,77,0.00,,,0.00,278.45,VWS V14.01,2013-07-09 14:01:00,
2013-07-09 10:03:00,77.2,69.8,29.96,WNW,283,3.7,6.1,78,0.00,,,0.00,284.31,VWS V14.01,2013-07-09 14:03:00,
2013-07-09 10:04:00,77.6,70.3,29.97,WNW,302,2.8,3.7,78,0.00,,,0.00,331.87,VWS V14.01,2013-07-09 14:04:00,
2013-07-09 10:05:00,77.6,69.2,29.97,WNW,284,5.4,5.4,75,0.00,,,0.00,402.44,VWS V14.01,2013-07-09 14:05:00,
2013-07-09 10:06:00,77.5,68.4,29.97,NW,306,7.1,7.1,74,0.00,,,0.00,309.83,VWS V14.01,2013-07-09 14:06:00,
2013-07-09 10:09:00,77.0,69.4,29.97,WNW,293,4.5,6.9,77,0.00,,,0.00,203.11,VWS V14.01,2013-07-09 14:09:00,
2013-07-09 10:10:00,77.5,69.0,29.97,West,274,5.6,5.6,75,0.00,,,0.00,557.33,VWS V14.01,2013-07-09 14:10:00,
2013-07-09 10:11:00,77.5,69.0,29.97,West,274,5.6,5.6,75,0.00,,,0.00,557.33,VWS V14.01,2013-07-09 14:11:00,
2013-07-09 10:14:00,78.5,68.7,29.97,WSW,252,5.7,5.7,72,0.00,,,0.00,510.93,VWS V14.01,2013-07-09 14:14:00,
2013-07-09 10:15:00,77.6,67.6,29.97,WNW,283,6.3,8.0,71,0.00,,,0.00,275.76,VWS V14.01,2013-07-09 14:15:00,
2013-07-09 10:17:00,77.2,67.3,29.96,WSW,249,6.6,8.5,72,0.00,,,0.00,278.39,VWS V14.01,2013-07-09 14:17:00,
2013-07-09 10:19:00,77.3,67.3,29.97,West,277,6.1,6.1,71,0.00,,,0.00,319.23,VWS V14.01,2013-07-09 14:19:00,
2013-07-09 10:21:00,78.1,68.4,29.97,WSW,241,5.4,9.0,72,0.00,,,0.00,429.12,VWS V14.01,2013-07-09 14:21:00,
2013-07-09 10:22:00,78.3,69.2,29.97,West,262,4.2,5.4,74,0.00,,,0.00,437.91,VWS V14.01,2013-07-09 14:22:00,
2013-07-09 10:24:00,78.5,68.6,29.97,SW,232,7.5,7.5,72,0.00,,,0.00,358.30,VWS V14.01,2013-07-09 14:24:00,
2013-07-09 10:25:00,77.5,66.8,29.96,West,263,5.6,8.3,70,0.00,,,0.00,275.03,VWS V14.01,2013-07-09 14:25:00,
2013-07-09 10:26:00,77.1,67.5,29.97,WSW,249,6.1,8.0,72,0.00,,,0.00,307.27,VWS V14.01,2013-07-09 14:26:00,
2013-07-09 10:28:00,78.1,68.3,29.96,WSW,248,8.5,8.5,72,0.00,,,0.00,477.47,VWS V14.01,2013-07-09 14:28:00,
2013-07-09 10:29:00,77.7,67.8,29.96,WSW,254,5.9,8.5,71,0.00,,,0.00,353.85,VWS V14.01,2013-07-09 14:29:00,
2013-07-09 10:30:00,77.5,67.0,29.96,WSW,255,5.9,5.9,70,0.00,,,0.00,321.92,VWS V14.01,2013-07-09 14:30:00,
2013-07-09 10:32:00,77.8,68.2,29.97,West,259,6.3,6.3,72,0.00,,,0.00,278.21,VWS V14.01,2013-07-09 14:32:00,
2013-07-09 10:34:00,77.3,69.1,29.97,West,263,4.4,8.5,76,0.00,,,0.00,312.88,VWS V14.01,2013-07-09 14:34:00,
2013-07-09 10:36:00,77.0,68.0,29.97,SW,235,7.3,9.3,74,0.00,,,0.00,262.03,VWS V14.01,2013-07-09 14:36:00,
2013-07-09 10:37:00,77.0,68.0,29.97,West,269,7.5,7.5,74,0.00,,,0.00,248.17,VWS V14.01,2013-07-09 14:37:00,
2013-07-09 10:39:00,76.8,68.1,29.97,WSW,243,7.6,10.4,75,0.00,,,0.00,282.48,VWS V14.01,2013-07-09 14:39:00,
2013-07-09 10:40:00,76.8,68.2,29.97,WSW,248,7.6,10.5,75,0.00,,,0.00,244.51,VWS V14.01,2013-07-09 14:40:00,
2013-07-09 10:42:00,76.5,68.5,29.97,West,279,9.5,9.5,76,0.00,,,0.00,222.53,VWS V14.01,2013-07-09 14:42:00,
2013-07-09 10:44:00,76.6,69.3,29.96,WSW,241,10.0,10.0,78,0.00,,,0.00,280.65,VWS V14.01,2013-07-09 14:44:00,
2013-07-09 10:45:00,76.3,68.7,29.96,WSW,246,8.3,10.0,77,0.00,,,0.00,285.84,VWS V14.01,2013-07-09 14:45:00,
2013-07-09 10:48:00,76.7,70.1,29.97,West,275,7.1,8.7,80,0.00,,,0.00,290.42,VWS V14.01,2013-07-09 14:48:00,
2013-07-09 10:49:00,76.9,70.2,29.98,West,265,8.7,8.7,80,0.00,,,0.00,302.14,VWS V14.01,2013-07-09 14:49:00,
2013-07-09 10:50:00,76.9,69.9,29.97,WSW,238,7.3,8.7,79,0.00,,,0.00,312.64,VWS V14.01,2013-07-09 14:50:00,
2013-07-09 10:52:00,77.0,69.2,29.97,WSW,253,9.3,9.3,77,0.00,,,0.00,336.81,VWS V14.01,2013-07-09 14:52:00,
2013-07-09 10:53:00,77.1,68.8,29.98,West,267,10.2,10.2,76,0.00,,,0.00,346.28,VWS V14.01,2013-07-09 14:53:00,
2013-07-09 10:54:00,77.4,68.7,29.98,WNW,283,7.6,8.8,75,0.00,,,0.00,342.92,VWS V14.01,2013-07-09 14:54:00,
2013-07-09 10:55:00,77.6,69.3,29.97,West,269,9.5,9.5,76,0.00,,,0.00,372.89,VWS V14.01,2013-07-09 14:55:00,
2013-07-09 10:58:00,77.4,67.9,29.97,WSW,246,8.8,10.2,73,0.00,,,0.00,359.22,VWS V14.01,2013-07-09 14:58:00,
2013-07-09 10:59:00,78.2,70.2,29.97,West,272,6.4,8.8,77,0.00,,,0.00,411.54,VWS V14.01,2013-07-09 14:59:00,
2013-07-09 11:00:00,78.3,71.0,29.97,West,279,3.5,6.4,78,0.00,,,0.00,387.61,VWS V14.01,2013-07-09 15:00:00,
2013-07-09 11:02:00,77.6,68.1,29.97,West,265,11.2,11.2,73,0.00,,,0.00,341.70,VWS V14.01,2013-07-09 15:02:00,
2013-07-09 11:03:00,77.1,67.5,29.97,West,264,9.9,11.2,72,0.00,,,0.00,348.72,VWS V14.01,2013-07-09 15:03:00,
2013-07-09 11:05:00,77.9,69.4,29.98,West,260,6.1,11.2,75,0.00,,,0.00,358.30,VWS V14.01,2013-07-09 15:05:00,
2013-07-09 11:06:00,77.7,68.9,29.97,WSW,243,9.9,11.2,74,0.00,,,0.00,331.93,VWS V14.01,2013-07-09 15:06:00,
2013-07-09 11:07:00,77.2,68.2,29.97,WSW,243,9.2,11.2,74,0.00,,,0.00,275.03,VWS V14.01,2013-07-09 15:07:00,
2013-07-09 11:08:00,76.9,67.8,29.97,West,279,8.5,11.2,73,0.00,,,0.00,234.49,VWS V14.01,2013-07-09 15:08:00,
2013-07-09 11:11:00,77.2,69.3,29.97,West,278,6.4,11.2,77,0.00,,,0.00,222.04,VWS V14.01,2013-07-09 15:11:00,
2013-07-09 11:12:00,77.2,68.8,29.97,WSW,238,9.5,11.2,76,0.00,,,0.00,233.94,VWS V14.01,2013-07-09 15:12:00,
2013-07-09 11:13:00,76.9,68.5,29.97,WSW,254,7.1,11.2,75,0.00,,,0.00,288.22,VWS V14.01,2013-07-09 15:13:00,
2013-07-09 11:14:00,76.9,68.3,29.97,West,269,8.0,11.2,75,0.00,,,0.00,287.24,VWS V14.01,2013-07-09 15:14:00,
2013-07-09 11:17:00,76.9,69.3,29.97,WNW,296,8.0,11.2,77,0.00,,,0.00,263.86,VWS V14.01,2013-07-09 15:17:00,
2013-07-09 11:18:00,76.9,69.5,29.97,West,270,7.8,11.2,78,0.00,,,0.00,291.09,VWS V14.01,2013-07-09 15:18:00,
2013-07-09 11:20:00,77.2,69.6,29.97,West,274,6.9,11.2,77,0.00,,,0.00,346.58,VWS V14.01,2013-07-09 15:20:00,
2013-07-09 11:21:00,77.6,69.5,29.97,West,264,6.3,11.2,76,0.00,,,0.00,351.47,VWS V14.01,2013-07-09 15:21:00,
2013-07-09 11:24:00,78.2,70.4,29.97,WSW,242,6.9,11.2,77,0.00,,,0.00,322.77,VWS V14.01,2013-07-09 15:24:00,
2013-07-09 11:25:00,77.8,69.8,29.97,WSW,250,5.7,11.2,76,0.00,,,0.00,299.94,VWS V14.01,2013-07-09 15:25:00,
2013-07-09 11:26:00,77.5,69.6,29.97,WSW,245,6.1,11.2,77,0.00,,,0.00,290.42,VWS V14.01,2013-07-09 15:26:00,
2013-07-09 11:27:00,77.5,69.2,29.97,West,279,5.2,11.2,75,0.00,,,0.00,278.94,VWS V14.01,2013-07-09 15:27:00,
2013-07-09 11:31:00,77.9,70.6,29.97,WSW,248,4.4,11.2,78,0.00,,,0.00,337.12,VWS V14.01,2013-07-09 15:31:00,
2013-07-09 11:33:00,78.1,70.4,29.97,WNW,298,4.4,11.2,77,0.00,,,0.00,481.14,VWS V14.01,2013-07-09 15:33:00,
2013-07-09 11:35:00,78.9,69.9,29.97,WNW,303,5.7,11.2,74,0.00,,,0.00,695.79,VWS V14.01,2013-07-09 15:35:00,
2013-07-09 11:37:00,77.6,68.9,29.97,WNW,289,6.3,11.2,75,0.00,,,0.00,358.79,VWS V14.01,2013-07-09 15:37:00,
2013-07-09 11:38:00,78.1,69.2,29.97,WNW,295,4.2,11.2,74,0.00,,,0.00,346.58,VWS V14.01,2013-07-09 15:38:00,
2013-07-09 11:39:00,78.1,68.1,29.96,WNW,289,6.3,11.2,71,0.00,,,0.00,317.89,VWS V14.01,2013-07-09 15:39:00,
2013-07-09 11:40:00,78.1,68.1,29.96,WNW,289,6.3,11.2,71,0.00,,,0.00,317.89,VWS V14.01,2013-07-09 15:40:00,
2013-07-09 11:42:00,77.7,68.3,29.97,WNW,290,8.3,11.2,73,0.00,,,0.00,231.81,VWS V14.01,2013-07-09 15:42:00,
2013-07-09 11:44:00,77.6,68.1,29.97,WNW,287,7.8,11.2,73,0.00,,,0.00,274.36,VWS V14.01,2013-07-09 15:44:00,
2013-07-09 11:45:00,77.4,67.9,29.96,NW,304,7.3,11.2,73,0.00,,,0.00,501.04,VWS V14.01,2013-07-09 15:45:00,
2013-07-09 11:46:00,77.6,67.7,29.97,West,271,6.8,11.2,72,0.00,,,0.00,302.63,VWS V14.01,2013-07-09 15:46:00,
2013-07-09 11:48:00,77.8,68.5,29.96,West,269,6.9,11.2,73,0.00,,,0.00,339.74,VWS V14.01,2013-07-09 15:48:00,
2013-07-09 11:50:00,78.0,69.5,29.97,West,278,4.7,11.2,75,0.00,,,0.00,262.09,VWS V14.01,2013-07-09 15:50:00,
2013-07-09 11:53:00,77.4,68.1,29.97,WSW,248,9.5,11.2,73,0.00,,,0.00,231.81,VWS V14.01,2013-07-09 15:53:00,
2013-07-09 11:54:00,77.5,68.4,29.97,WSW,248,7.8,11.2,74,0.00,,,0.00,236.45,VWS V14.01,2013-07-09 15:54:00,
2013-07-09 11:55:00,77.4,68.7,29.97,WSW,248,8.7,11.2,75,0.00,,,0.00,244.57,VWS V14.01,2013-07-09 15:55:00,
2013-07-09 11:56:00,77.5,69.2,29.97,WSW,245,6.6,11.2,76,0.00,,,0.00,247.07,VWS V14.01,2013-07-09 15:56:00,
2013-07-09 11:59:00,77.6,68.8,29.97,West,259,8.0,11.2,74,0.00,,,0.00,272.10,VWS V14.01,2013-07-09 15:59:00,
2013-07-09 12:00:00,77.8,69.6,29.97,West,274,5.9,11.2,76,0.00,,,0.00,257.57,VWS V14.01,2013-07-09 16:00:00,
2013-07-09 12:01:00,77.5,68.8,29.97,WNW,286,6.6,11.2,74,0.00,,,0.00,272.22,VWS V14.01,2013-07-09 16:01:00,
2013-07-09 12:02:00,77.6,68.4,29.97,WNW,286,5.7,11.2,73,0.00,,,0.00,239.38,VWS V14.01,2013-07-09 16:02:00,
2013-07-09 12:04:00,77.9,69.3,29.97,SW,235,7.8,7.8,75,0.00,,,0.00,226.31,VWS V14.01,2013-07-09 16:04:00,
2013-07-09 12:05:00,77.4,68.4,29.96,WSW,249,7.6,8.7,74,0.00,,,0.00,229.37,VWS V14.01,2013-07-09 16:05:00,
2013-07-09 12:06:00,77.9,69.2,29.95,WSW,241,5.7,8.7,75,0.00,,,0.00,259.34,VWS V14.01,2013-07-09 16:06:00,
2013-07-09 12:07:00,77.9,69.4,29.96,WSW,255,7.6,7.6,75,0.00,,,0.00,290.66,VWS V14.01,2013-07-09 16:07:00,
2013-07-09 12:08:00,78.0,70.1,29.96,West,264,6.1,7.6,77,0.00,,,0.00,287.97,VWS V14.01,2013-07-09 16:08:00,
2013-07-09 12:11:00,79.4,71.9,29.96,West,280,2.7,4.7,78,0.00,,,0.00,647.86,VWS V14.01,2013-07-09 16:11:00,
2013-07-09 12:13:00,78.3,68.4,29.95,WSW,248,7.3,7.3,72,0.00,,,0.00,308.36,VWS V14.01,2013-07-09 16:13:00,
2013-07-09 12:14:00,78.3,69.1,29.96,West,261,7.1,7.3,73,0.00,,,0.00,371.00,VWS V14.01,2013-07-09 16:14:00,
2013-07-09 12:15:00,78.8,68.3,29.96,West,279,4.9,7.1,70,0.00,,,0.00,334.37,VWS V14.01,2013-07-09 16:15:00,
2013-07-09 12:16:00,78.4,69.2,29.97,West,264,6.6,6.6,73,0.00,,,0.00,294.08,VWS V14.01,2013-07-09 16:16:00,
2013-07-09 12:17:00,78.1,68.6,29.96,West,265,6.6,6.6,73,0.00,,,0.00,271.61,VWS V14.01,2013-07-09 16:17:00,
2013-07-09 12:20:00,78.8,70.6,29.97,West,263,5.4,6.8,76,0.00,,,0.00,420.09,VWS V14.01,2013-07-09 16:20:00,
2013-07-09 12:21:00,79.5,70.2,29.96,WSW,247,4.5,4.5,73,0.00,,,0.00,831.99,VWS V14.01,2013-07-09 16:21:00,
2013-07-09 12:22:00,79.2,69.6,29.97,West,261,4.9,4.9,72,0.00,,,0.00,515.08,VWS V14.01,2013-07-09 16:22:00,
2013-07-09 12:23:00,80.9,71.8,29.97,NW,305,4.4,4.4,74,0.00,,,0.04,680.89,VWS V14.01,2013-07-09 16:23:00,
2013-07-09 12:26:00,80.0,67.0,29.96,NW,308,4.0,4.7,64,0.00,,,0.00,729.79,VWS V14.01,2013-07-09 16:26:00,
2013-07-09 12:27:00,79.2,66.1,29.96,WNW,294,5.9,5.9,64,0.00,,,0.00,742.19,VWS V14.01,2013-07-09 16:27:00,
2013-07-09 12:28:00,80.4,67.1,29.96,West,267,2.8,3.5,64,0.00,,,0.00,779.43,VWS V14.01,2013-07-09 16:28:00,
2013-07-09 12:29:00,80.3,67.4,29.96,WSW,240,3.2,3.2,65,0.00,,,0.00,664.35,VWS V14.01,2013-07-09 16:29:00,
2013-07-09 12:32:00,79.8,64.7,29.96,WSW,248,5.7,9.2,60,0.00,,,0.00,341.09,VWS V14.01,2013-07-09 16:32:00,
2013-07-09 12:33:00,80.5,68.8,29.96,West,260,3.5,6.1,68,0.00,,,0.00,333.64,VWS V14.01,2013-07-09 16:33:00,
2013-07-09 12:34:00,79.7,67.1,29.96,NW,317,6.4,6.4,66,0.00,,,0.00,454.27,VWS V14.01,2013-07-09 16:34:00,
2013-07-09 12:37:00,80.1,68.3,29.96,WSW,256,4.9,4.9,67,0.00,,,0.00,373.44,VWS V14.01,2013-07-09 16:37:00,
2013-07-09 12:38:00,79.4,66.3,29.96,WNW,287,5.2,5.2,64,0.00,,,0.00,373.44,VWS V14.01,2013-07-09 16:38:00,
2013-07-09 12:39:00,81.1,69.6,29.95,SW,235,2.7,5.2,68,0.00,,,0.00,371.98,VWS V14.01,2013-07-09 16:39:00,
2013-07-09 12:41:00,79.9,66.4,29.96,WSW,242,5.1,6.1,63,0.00,,,0.00,422.28,VWS V14.01,2013-07-09 16:41:00,
2013-07-09 12:42:00,80.2,67.6,29.96,West,260,6.1,6.1,65,0.00,,,0.00,364.65,VWS V14.01,2013-07-09 16:42:00,
2013-07-09 12:44:00,80.8,68.9,29.96,WNW,282,5.7,5.7,67,0.00,,,0.00,319.72,VWS V14.01,2013-07-09 16:44:00,
2013-07-09 12:46:00,80.3,66.4,29.96,West,274,8.1,8.5,63,0.00,,,0.00,488.95,VWS V14.01,2013-07-09 16:46:00,
2013-07-09 12:47:00,81.2,68.6,29.97,West,263,7.1,8.5,66,0.00,,,0.00,782.30,VWS V14.01,2013-07-09 16:47:00,
2013-07-09 12:50:00,80.6,67.7,29.97,West,272,4.9,6.4,65,0.00,,,0.00,356.96,VWS V14.01,2013-07-09 16:50:00,
2013-07-09 12:51:00,80.2,65.6,29.96,West,263,4.7,7.1,61,0.00,,,0.00,400.31,VWS V14.01,2013-07-09 16:51:00,
2013-07-09 12:52:00,80.2,66.7,29.96,West,269,8.0,8.0,63,0.00,,,0.00,393.77,VWS V14.01,2013-07-09 16:52:00,
2013-07-09 12:53:00,80.1,66.7,29.96,West,274,10.4,10.4,64,0.00,,,0.00,418.50,VWS V14.01,2013-07-09 16:53:00,
2013-07-09 12:54:00,80.8,67.4,29.96,West,275,9.2,9.2,64,0.00,,,0.00,649.39,VWS V14.01,2013-07-09 16:54:00,
2013-07-09 12:55:00,81.7,68.5,29.96,West,262,6.3,9.2,64,0.00,,,0.00,724.60,VWS V14.01,2013-07-09 16:55:00,
2013-07-09 12:56:00,81.7,66.5,29.96,West,265,5.2,6.3,60,0.00,,,0.00,529.00,VWS V14.01,2013-07-09 16:56:00,
2013-07-09 12:58:00,82.2,67.3,29.95,WSW,239,6.4,10.0,61,0.00,,,0.00,835.17,VWS V14.01,2013-07-09 16:58:00,
2013-07-09 13:00:00,81.7,65.2,29.95,WSW,251,10.4,10.4,57,0.00,,,0.00,795.91,VWS V14.01,2013-07-09 17:00:00,
2013-07-09 13:01:00,82.7,67.8,29.95,SW,218,8.0,10.4,61,0.00,,,0.00,754.64,VWS V14.01,2013-07-09 17:01:00,
2013-07-09 13:02:00,81.2,65.8,29.95,WSW,250,7.8,9.3,60,0.00,,,0.00,825.70,VWS V14.01,2013-07-09 17:02:00,
2013-07-09 13:03:00,81.3,64.1,29.95,WSW,247,7.1,9.3,56,0.00,,,0.00,811.05,VWS V14.01,2013-07-09 17:03:00,
2013-07-09 13:04:00,81.6,63.9,29.96,WSW,250,6.3,7.1,55,0.00,,,0.00,542.25,VWS V14.01,2013-07-09 17:04:00,
2013-07-09 13:05:00,81.5,64.9,29.95,WSW,254,6.4,7.3,57,0.00,,,0.00,739.74,VWS V14.01,2013-07-09 17:05:00,
2013-07-09 13:07:00,81.6,66.7,29.95,WSW,256,6.8,7.3,61,0.00,,,0.00,476.01,VWS V14.01,2013-07-09 17:07:00,
2013-07-09 13:08:00,82.6,69.3,29.95,WSW,245,7.3,7.3,64,0.00,,,0.00,715.32,VWS V14.01,2013-07-09 17:08:00,
2013-07-09 13:11:00,81.4,65.9,29.95,West,274,6.1,7.8,59,0.00,,,0.00,493.10,VWS V14.01,2013-07-09 17:11:00,
2013-07-09 13:12:00,81.2,67.1,29.95,West,270,7.5,8.1,62,0.00,,,0.00,395.42,VWS V14.01,2013-07-09 17:12:00,
2013-07-09 13:13:00,81.6,67.0,29.95,West,263,7.5,7.5,61,0.00,,,0.00,381.07,VWS V14.01,2013-07-09 17:13:00,
2013-07-09 13:14:00,81.3,67.4,29.94,WSW,257,6.8,7.5,63,0.00,,,0.00,424.73,VWS V14.01,2013-07-09 17:14:00,
2013-07-09 13:16:00,82.7,66.9,29.95,WSW,245,4.2,6.9,59,0.00,,,0.00,855.43,VWS V14.01,2013-07-09 17:16:00,
2013-07-09 13:18:00,81.8,64.3,29.95,West,262,7.3,7.3,56,0.00,,,0.00,890.60,VWS V14.01,2013-07-09 17:18:00,
2013-07-09 13:20:00,81.8,64.3,29.95,West,262,7.3,7.3,56,0.00,,,0.00,890.60,VWS V14.01,2013-07-09 17:20:00,
2013-07-09 13:21:00,84.3,67.9,29.95,WSW,239,3.4,3.5,58,0.00,,,0.00,889.68,VWS V14.01,2013-07-09 17:21:00,
2013-07-09 13:22:00,83.4,67.8,29.94,SW,236,5.9,7.1,60,0.00,,,0.00,328.75,VWS V14.01,2013-07-09 17:22:00,
2013-07-09 13:24:00,82.2,65.2,29.95,WSW,244,4.9,4.9,57,0.00,,,0.00,389.74,VWS V14.01,2013-07-09 17:24:00,
2013-07-09 13:25:00,82.9,66.1,29.95,WSW,244,4.9,4.9,57,0.00,,,0.00,370.94,VWS V14.01,2013-07-09 17:25:00,
2013-07-09 13:27:00,82.8,65.5,29.95,WNW,303,5.4,5.4,56,0.00,,,0.00,671.37,VWS V14.01,2013-07-09 17:27:00,
2013-07-09 13:28:00,82.9,66.0,29.94,WNW,292,7.8,7.8,57,0.00,,,0.00,407.63,VWS V14.01,2013-07-09 17:28:00,
2013-07-09 13:29:00,82.9,64.6,29.94,West,275,11.1,11.1,54,0.00,,,0.00,624.97,VWS V14.01,2013-07-09 17:29:00,
2013-07-09 13:30:00,82.2,63.8,29.94,West,267,9.9,11.1,54,0.00,,,0.00,676.25,VWS V14.01,2013-07-09 17:30:00,
2013-07-09 13:34:00,83.1,63.5,29.94,WSW,244,5.6,7.6,52,0.00,,,0.00,465.75,VWS V14.01,2013-07-09 17:34:00,
2013-07-09 13:35:00,82.5,64.5,29.94,WSW,250,4.5,5.1,55,0.00,,,0.00,262.39,VWS V14.01,2013-07-09 17:35:00,
2013-07-09 13:37:00,82.7,64.5,29.94,West,273,6.4,6.6,54,0.00,,,0.00,270.88,VWS V14.01,2013-07-09 17:37:00,
2013-07-09 13:39:00,82.4,66.1,29.94,West,267,5.4,5.4,58,0.00,,,0.00,226.92,VWS V14.01,2013-07-09 17:39:00,
2013-07-09 13:41:00,82.4,63.0,29.94,NW,313,6.8,7.1,52,0.00,,,0.00,213.74,VWS V14.01,2013-07-09 17:41:00,
2013-07-09 13:42:00,81.6,65.3,29.94,WSW,254,5.7,5.7,58,0.00,,,0.00,219.35,VWS V14.01,2013-07-09 17:42:00,
2013-07-09 13:43:00,82.0,64.3,29.94,West,268,8.0,8.0,55,0.00,,,0.00,213.49,VWS V14.01,2013-07-09 17:43:00,
2013-07-09 13:44:00,82.0,65.1,29.94,West,259,4.9,7.1,57,0.00,,,0.00,285.84,VWS V14.01,2013-07-09 17:44:00,
2013-07-09 13:47:00,83.5,67.7,29.94,WSW,251,5.7,5.7,59,0.00,,,0.00,754.40,VWS V14.01,2013-07-09 17:47:00,
2013-07-09 13:48:00,82.4,63.7,29.94,WSW,255,8.7,8.7,53,0.00,,,0.00,320.15,VWS V14.01,2013-07-09 17:48:00,
2013-07-09 13:49:00,83.2,66.8,29.94,SW,235,6.1,8.3,58,0.00,,,0.00,310.20,VWS V14.01,2013-07-09 17:49:00,
2013-07-09 13:51:00,82.4,65.7,29.94,West,266,5.1,5.2,57,0.00,,,0.00,297.99,VWS V14.01,2013-07-09 17:51:00,
2013-07-09 13:52:00,83.4,64.0,29.94,SW,218,6.3,6.3,52,0.00,,,0.00,308.36,VWS V14.01,2013-07-09 17:52:00,
2013-07-09 13:54:00,82.4,64.0,29.93,West,260,7.8,7.8,54,0.00,,,0.00,331.20,VWS V14.01,2013-07-09 17:54:00,
2013-07-09 13:57:00,84.5,66.6,29.93,SW,232,4.7,4.7,55,0.00,,,0.00,348.72,VWS V14.01,2013-07-09 17:57:00,
2013-07-09 13:59:00,83.6,65.1,29.94,SW,230,4.2,4.7,54,0.00,,,0.00,272.83,VWS V14.01,2013-07-09 17:59:00,
2013-07-09 14:00:00,83.1,62.5,29.93,WSW,247,2.7,4.4,50,0.00,,,0.00,273.81,VWS V14.01,2013-07-09 18:00:00,
2013-07-09 14:03:00,83.3,64.0,29.93,West,262,2.2,2.2,52,0.00,,,0.00,261.42,VWS V14.01,2013-07-09 18:03:00,
2013-07-09 14:04:00,83.5,64.2,29.93,NNW,339,2.7,2.7,52,0.00,,,0.00,248.66,VWS V14.01,2013-07-09 18:04:00,
2013-07-09 14:07:00,83.6,63.5,29.93,North,0,3.4,3.9,51,0.00,,,0.00,305.31,VWS V14.01,2013-07-09 18:07:00,
2013-07-09 14:08:00,83.1,63.7,29.93,NNW,332,2.8,3.7,52,0.00,,,0.00,226.43,VWS V14.01,2013-07-09 18:08:00,
2013-07-09 14:09:00,83.1,63.7,29.93,NW,319,5.1,5.1,52,0.00,,,0.00,203.24,VWS V14.01,2013-07-09 18:09:00,
2013-07-09 14:10:00,82.5,64.8,29.93,NW,313,6.3,6.3,55,0.00,,,0.00,212.39,VWS V14.01,2013-07-09 18:10:00,
2013-07-09 14:11:00,82.8,63.6,29.92,WNW,287,5.7,6.3,52,0.00,,,0.00,290.66,VWS V14.01,2013-07-09 18:11:00,
2013-07-09 14:12:00,83.4,65.6,29.92,WNW,301,6.9,6.9,55,0.00,,,0.00,850.24,VWS V14.01,2013-07-09 18:12:00,
2013-07-09 14:14:00,85.2,68.8,29.92,NW,316,5.1,6.9,58,0.00,,,0.00,920.76,VWS V14.01,2013-07-09 18:14:00,
2013-07-09 14:15:00,85.4,65.6,29.92,North,351,5.9,5.9,52,0.00,,,0.00,664.04,VWS V14.01,2013-07-09 18:15:00,
2013-07-09 14:16:00,84.6,63.7,29.92,NNW,328,5.1,5.9,50,0.00,,,0.00,783.70,VWS V14.01,2013-07-09 18:16:00,
2013-07-09 14:17:00,84.8,61.7,29.92,West,262,4.2,4.7,46,0.00,,,0.00,901.83,VWS V14.01,2013-07-09 18:17:00,
2013-07-09 14:20:00,86.3,64.1,29.92,NW,318,1.8,3.5,48,0.00,,,0.00,861.84,VWS V14.01,2013-07-09 18:20:00,
2013-07-09 14:21:00,85.5,60.3,29.92,West,278,3.0,3.0,43,0.00,,,0.00,625.46,VWS V14.01,2013-07-09 18:21:00,
2013-07-09 14:22:00,88.2,66.2,29.92,WSW,239,0.0,3.0,48,0.00,,,0.00,881.75,VWS V14.01,2013-07-09 18:22:00,
2013-07-09 14:23:00,86.9,62.7,29.92,WSW,238,5.9,5.9,44,0.00,,,0.00,896.03,VWS V14.01,2013-07-09 18:23:00,
2013-07-09 14:26:00,85.1,61.6,29.92,West,270,10.2,10.5,45,0.00,,,0.00,868.38,VWS V14.01,2013-07-09 18:26:00,
2013-07-09 14:27:00,84.6,59.4,29.91,WNW,287,10.7,10.7,43,0.00,,,0.00,876.50,VWS V14.01,2013-07-09 18:27:00,
2013-07-09 14:28:00,85.5,63.2,29.92,West,270,11.4,11.4,47,0.00,,,0.00,795.91,VWS V14.01,2013-07-09 18:28:00,
2013-07-09 14:31:00,85.2,63.8,29.91,WNW,299,6.6,9.9,49,0.00,,,0.00,870.39,VWS V14.01,2013-07-09 18:31:00,
2013-07-09 14:33:00,85.4,61.2,29.92,NW,304,11.7,11.7,44,0.00,,,0.00,923.63,VWS V14.01,2013-07-09 18:33:00,
2013-07-09 14:36:00,84.7,62.6,29.91,West,281,8.1,9.5,48,0.00,,,0.00,387.85,VWS V14.01,2013-07-09 18:36:00,
2013-07-09 14:37:00,83.7,61.2,29.91,NW,306,8.1,10.0,47,0.00,,,0.00,329.49,VWS V14.01,2013-07-09 18:37:00,
2013-07-09 14:39:00,84.0,64.2,29.91,West,281,5.6,6.1,51,0.00,,,0.00,363.68,VWS V14.01,2013-07-09 18:39:00,
2013-07-09 14:41:00,84.2,64.7,29.92,WSW,257,4.5,5.4,52,0.00,,,0.00,331.01,VWS V14.01,2013-07-09 18:41:00,
2013-07-09 14:43:00,83.4,62.2,29.91,SW,234,9.9,9.9,49,0.00,,,0.00,283.09,VWS V14.01,2013-07-09 18:43:00,
2013-07-09 14:45:00,83.3,64.3,29.91,WSW,252,6.9,7.6,53,0.00,,,0.00,288.89,VWS V14.01,2013-07-09 18:45:00,
2013-07-09 14:46:00,83.7,63.1,29.91,WNW,301,9.9,9.9,50,0.00,,,0.00,298.66,VWS V14.01,2013-07-09 18:46:00,
2013-07-09 14:50:00,82.0,63.8,29.91,West,281,13.8,13.8,54,0.00,,,0.00,288.46,VWS V14.01,2013-07-09 18:50:00,
2013-07-09 14:51:00,82.1,65.3,29.91,WSW,246,8.1,12.4,57,0.00,,,0.00,312.39,VWS V14.01,2013-07-09 18:51:00,
2013-07-09 14:52:00,82.3,64.9,29.92,WSW,245,9.9,9.9,56,0.00,,,0.00,334.37,VWS V14.01,2013-07-09 18:52:00,
2013-07-09 14:53:00,83.6,62.0,29.90,WSW,248,9.3,9.7,48,0.00,,,0.00,732.17,VWS V14.01,2013-07-09 18:53:00,
2013-07-09 14:56:00,83.3,64.4,29.90,WSW,245,8.3,8.5,53,0.00,,,0.00,390.29,VWS V14.01,2013-07-09 18:56:00,
2013-07-09 14:57:00,83.8,66.9,29.90,WSW,246,4.7,6.4,57,0.00,,,0.00,474.18,VWS V14.01,2013-07-09 18:57:00,
2013-07-09 14:58:00,84.1,65.9,29.90,SW,230,8.0,8.0,54,0.00,,,0.00,439.38,VWS V14.01,2013-07-09 18:58:00,
2013-07-09 15:00:00,83.5,65.8,29.91,SW,227,6.4,7.3,55,0.00,,,0.00,371.00,VWS V14.01,2013-07-09 19:00:00,
2013-07-09 15:01:00,83.1,66.1,29.91,SSW,201,6.8,7.3,57,0.00,,,0.00,289.87,VWS V14.01,2013-07-09 19:01:00,
2013-07-09 15:04:00,81.3,65.8,29.92,SW,235,8.7,11.9,59,0.00,,,0.00,199.76,VWS V14.01,2013-07-09 19:04:00,
2013-07-09 15:05:00,81.3,65.8,29.92,SW,235,8.7,11.9,59,0.00,,,0.00,199.76,VWS V14.01,2013-07-09 19:05:00,
2013-07-09 15:06:00,81.3,66.4,29.92,SW,228,6.4,11.1,61,0.00,,,0.00,179.06,VWS V14.01,2013-07-09 19:06:00,
2013-07-09 15:07:00,80.8,66.1,29.92,SW,222,7.3,8.3,61,0.00,,,0.00,140.78,VWS V14.01,2013-07-09 19:07:00,
2013-07-09 15:10:00,79.8,65.4,29.92,SW,223,6.4,9.0,61,0.00,,,0.00,96.76,VWS V14.01,2013-07-09 19:10:00,
2013-07-09 15:11:00,80.7,65.2,29.92,SW,225,8.3,8.3,59,0.00,,,0.00,120.70,VWS V14.01,2013-07-09 19:11:00,
2013-07-09 15:12:00,80.8,65.4,29.92,SW,219,7.6,7.6,59,0.00,,,0.00,209.83,VWS V14.01,2013-07-09 19:12:00,
2013-07-09 15:13:00,80.8,65.4,29.92,SW,227,7.6,7.8,60,0.00,,,0.00,215.45,VWS V14.01,2013-07-09 19:13:00,
2013-07-09 15:17:00,80.1,67.7,29.91,WSW,249,8.3,8.3,66,0.00,,,0.00,195.18,VWS V14.01,2013-07-09 19:17:00,
2013-07-09 15:18:00,80.2,68.0,29.91,West,261,9.2,9.2,66,0.00,,,0.00,186.02,VWS V14.01,2013-07-09 19:18:00,
2013-07-09 15:19:00,80.4,68.2,29.91,WSW,242,10.9,10.9,66,0.00,,,0.00,162.94,VWS V14.01,2013-07-09 19:19:00,
2013-07-09 15:20:00,80.0,68.7,29.91,WSW,253,7.5,10.9,68,0.00,,,0.00,142.06,VWS V14.01,2013-07-09 19:20:00,
2013-07-09 15:22:00,79.4,68.9,29.92,West,259,6.3,11.2,70,0.00,,,0.00,70.63,VWS V14.01,2013-07-09 19:22:00,
2013-07-09 15:24:00,79.6,69.5,29.92,WSW,247,9.5,10.5,71,0.00,,,0.00,60.87,VWS V14.01,2013-07-09 19:24:00,
2013-07-09 15:25:00,79.9,69.8,29.92,WSW,246,10.2,10.2,71,0.00,,,0.00,57.94,VWS V14.01,2013-07-09 19:25:00,
2013-07-09 15:26:00,80.0,69.0,29.92,WSW,254,13.5,13.5,69,0.00,,,0.00,55.98,VWS V14.01,2013-07-09 19:26:00,
2013-07-09 15:28:00,78.0,67.7,29.92,West,268,10.7,10.7,70,0.00,,,0.00,48.66,VWS V14.01,2013-07-09 19:28:00,
2013-07-09 15:30:00,78.2,69.6,29.92,West,270,8.5,8.5,75,0.00,,,0.00,44.75,VWS V14.01,2013-07-09 19:30:00,
2013-07-09 15:31:00,77.9,69.5,29.92,West,262,9.2,9.2,75,0.00,,,0.00,43.77,VWS V14.01,2013-07-09 19:31:00,
2013-07-09 15:33:00,77.4,69.6,29.92,West,267,9.0,9.0,77,0.00,,,0.00,34.00,VWS V14.01,2013-07-09 19:33:00,
2013-07-09 15:36:00,77.3,68.4,29.92,West,260,9.3,9.5,74,0.00,,,0.00,31.56,VWS V14.01,2013-07-09 19:36:00,
2013-07-09 15:37:00,76.4,66.1,29.92,West,263,13.8,19.4,71,0.00,,,0.00,29.12,VWS V14.01,2013-07-09 19:37:00,
2013-07-09 15:38:00,77.5,65.4,29.92,West,269,20.6,20.6,66,0.00,,,0.00,28.82,VWS V14.01,2013-07-09 19:38:00,
2013-07-09 15:39:00,76.3,64.6,29.92,WSW,252,15.0,15.0,67,0.00,,,0.00,26.98,VWS V14.01,2013-07-09 19:39:00,
2013-07-09 15:42:00,74.6,65.5,29.92,West,274,7.6,11.7,73,0.04,,,0.04,21.79,VWS V14.01,2013-07-09 19:42:00,
2013-07-09 15:43:00,75.1,65.9,29.92,WNW,298,10.5,10.5,73,0.04,,,0.04,21.55,VWS V14.01,2013-07-09 19:43:00,
2013-07-09 15:45:00,73.3,66.6,29.92,NW,313,10.0,11.7,80,0.04,,,0.04,17.22,VWS V14.01,2013-07-09 19:45:00,
2013-07-09 15:46:00,73.3,67.4,29.92,NW,304,9.9,9.9,82,0.04,,,0.04,18.99,VWS V14.01,2013-07-09 19:46:00,
2013-07-09 15:47:00,74.3,68.9,29.92,NW,318,9.9,9.9,83,0.04,,,0.04,20.09,VWS V14.01,2013-07-09 19:47:00,
2013-07-09 15:49:00,75.2,70.0,29.93,NW,304,11.4,15.2,84,0.04,,,0.04,16.67,VWS V14.01,2013-07-09 19:49:00,
2013-07-09 15:50:00,73.6,68.9,29.93,NW,318,5.9,11.4,85,0.04,,,0.04,14.71,VWS V14.01,2013-07-09 19:50:00,
2013-07-09 15:51:00,73.7,70.3,29.93,NW,316,14.6,14.6,89,0.04,,,0.04,9.83,VWS V14.01,2013-07-09 19:51:00,
2013-07-09 15:52:00,73.7,70.8,29.94,NW,316,13.1,13.1,91,0.04,,,0.04,7.14,VWS V14.01,2013-07-09 19:52:00,
2013-07-09 15:53:00,73.8,71.1,29.94,WNW,289,8.3,13.1,91,0.04,,,0.04,6.90,VWS V14.01,2013-07-09 19:53:00,
2013-07-09 15:55:00,72.7,68.8,29.94,NW,308,13.8,15.2,88,0.04,,,0.04,9.58,VWS V14.01,2013-07-09 19:55:00,
2013-07-09 15:57:00,71.9,68.7,29.93,NW,315,15.8,17.2,90,0.12,,,0.12,9.10,VWS V14.01,2013-07-09 19:57:00,
2013-07-09 15:58:00,72.0,69.4,29.93,West,278,11.4,15.8,92,0.12,,,0.12,8.97,VWS V14.01,2013-07-09 19:58:00,
2013-07-09 15:59:00,72.0,69.8,29.94,WNW,296,10.2,10.4,93,0.16,,,0.16,9.58,VWS V14.01,2013-07-09 19:59:00,
2013-07-09 16:02:00,71.1,69.2,29.95,NNW,329,13.8,14.0,94,0.04,,,0.20,5.01,VWS V14.01,2013-07-09 20:02:00,
2013-07-09 16:04:00,70.8,69.2,29.95,NE,41,7.5,15.3,94,0.12,,,0.28,7.33,VWS V14.01,2013-07-09 20:04:00,
2013-07-09 16:05:00,70.8,69.2,29.95,NE,41,7.5,15.3,94,0.12,,,0.28,7.33,VWS V14.01,2013-07-09 20:05:00,
2013-07-09 16:06:00,70.7,69.4,29.93,North,360,4.4,15.3,96,0.12,,,0.28,13.25,VWS V14.01,2013-07-09 20:06:00,
2013-07-09 16:08:00,70.6,69.6,29.93,NW,316,3.9,15.3,96,0.12,,,0.28,16.18,VWS V14.01,2013-07-09 20:08:00,
2013-07-09 16:10:00,70.7,69.8,29.94,NW,317,4.7,15.3,97,0.12,,,0.28,17.22,VWS V14.01,2013-07-09 20:10:00,
2013-07-09 16:12:00,70.8,70.0,29.93,NNW,327,5.7,15.3,97,0.12,,,0.28,18.62,VWS V14.01,2013-07-09 20:12:00,
2013-07-09 16:13:00,70.8,70.0,29.93,NNW,327,5.7,15.3,97,0.12,,,0.28,18.62,VWS V14.01,2013-07-09 20:13:00,
2013-07-09 16:14:00,71.0,70.2,29.94,NNW,346,5.6,15.3,97,0.12,,,0.28,19.29,VWS V14.01,2013-07-09 20:14:00,
2013-07-09 16:16:00,72.2,71.4,29.94,NNW,327,7.3,15.3,97,0.12,,,0.28,18.19,VWS V14.01,2013-07-09 20:16:00,
2013-07-09 16:19:00,71.9,71.0,29.94,NNW,332,6.4,15.3,97,0.12,,,0.28,22.41,VWS V14.01,2013-07-09 20:19:00,
2013-07-09 16:20:00,72.3,71.3,29.94,WNW,303,9.5,15.3,96,0.12,,,0.28,24.48,VWS V14.01,2013-07-09 20:20:00,
2013-07-09 16:21:00,72.1,71.0,29.93,NW,314,6.9,15.3,96,0.12,,,0.28,26.68,VWS V14.01,2013-07-09 20:21:00,
2013-07-09 16:25:00,72.8,70.7,29.94,NW,321,11.1,15.3,93,0.12,,,0.28,33.03,VWS V14.01,2013-07-09 20:25:00,
2013-07-09 16:26:00,71.8,69.0,29.94,NW,317,12.8,15.3,91,0.12,,,0.28,36.20,VWS V14.01,2013-07-09 20:26:00,
2013-07-09 16:27:00,72.4,69.6,29.94,WNW,303,11.2,15.3,91,0.12,,,0.28,34.00,VWS V14.01,2013-07-09 20:27:00,
2013-07-09 16:31:00,73.1,70.0,29.96,NW,315,17.9,17.9,90,0.12,,,0.28,8.61,VWS V14.01,2013-07-09 20:31:00,
2013-07-09 16:32:00,70.8,67.4,29.95,NW,310,18.9,18.9,89,0.16,,,0.31,11.29,VWS V14.01,2013-07-09 20:32:00,
2013-07-09 16:33:00,70.8,67.3,29.95,NW,316,15.3,18.9,89,0.16,,,0.31,11.29,VWS V14.01,2013-07-09 20:33:00,
2013-07-09 16:36:00,70.2,67.4,29.96,WNW,293,18.2,22.5,91,0.16,,,0.31,16.67,VWS V14.01,2013-07-09 20:36:00,
2013-07-09 16:38:00,69.6,66.7,29.95,NW,314,24.4,25.3,91,0.16,,,0.31,18.38,VWS V14.01,2013-07-09 20:38:00,
2013-07-09 16:40:00,69.3,66.7,29.95,NNW,332,17.2,25.3,92,0.16,,,0.31,21.79,VWS V14.01,2013-07-09 20:40:00,
2013-07-09 16:41:00,69.2,67.0,29.95,NNW,327,15.3,25.3,93,0.16,,,0.31,19.60,VWS V14.01,2013-07-09 20:41:00,
2013-07-09 16:43:00,69.4,67.5,29.95,NW,308,15.0,25.3,94,0.16,,,0.31,21.79,VWS V14.01,2013-07-09 20:43:00,
2013-07-09 16:45:00,71.7,69.7,29.94,NW,320,17.7,25.3,94,0.16,,,0.31,24.36,VWS V14.01,2013-07-09 20:45:00,
2013-07-09 16:47:00,71.9,69.8,29.95,WNW,297,17.7,25.3,93,0.16,,,0.31,23.93,VWS V14.01,2013-07-09 20:47:00,
2013-07-09 16:51:00,70.5,66.5,29.94,WNW,285,17.9,25.3,87,0.16,,,0.31,19.35,VWS V14.01,2013-07-09 20:51:00,
2013-07-09 16:52:00,70.0,65.7,29.94,WNW,295,13.8,25.3,86,0.16,,,0.31,18.38,VWS V14.01,2013-07-09 20:52:00,
2013-07-09 16:53:00,69.8,66.0,29.94,WNW,299,11.6,25.3,88,0.16,,,0.31,16.91,VWS V14.01,2013-07-09 20:53:00,
2013-07-09 16:56:00,69.4,66.6,29.95,NW,317,12.8,25.3,91,0.20,,,0.35,9.58,VWS V14.01,2013-07-09 20:56:00,
2013-07-09 16:58:00,69.4,67.4,29.93,NW,321,16.2,25.3,93,0.20,,,0.35,8.24,VWS V14.01,2013-07-09 20:58:00,
2013-07-09 16:59:00,69.4,68.1,29.94,NW,307,19.4,25.3,95,0.20,,,0.35,8.00,VWS V14.01,2013-07-09 20:59:00,
2013-07-09 17:01:00,69.5,68.4,29.95,NW,310,17.4,25.3,96,0.24,,,0.39,9.10,VWS V14.01,2013-07-09 21:01:00,
2013-07-09 17:03:00,69.4,68.2,29.94,NNW,327,18.9,18.9,96,0.24,,,0.39,9.34,VWS V14.01,2013-07-09 21:03:00,
2013-07-09 17:04:00,69.4,68.3,29.94,NW,322,14.6,18.9,96,0.24,,,0.39,9.40,VWS V14.01,2013-07-09 21:04:00,
2013-07-09 17:05:00,69.4,68.3,29.95,NW,316,16.2,16.2,96,0.24,,,0.39,5.07,VWS V14.01,2013-07-09 21:05:00,
2013-07-09 17:07:00,69.6,68.6,29.94,WNW,300,12.6,14.6,97,0.24,,,0.39,6.84,VWS V14.01,2013-07-09 21:07:00,
2013-07-09 17:08:00,69.6,68.6,29.94,West,277,12.6,12.6,97,0.24,,,0.39,7.14,VWS V14.01,2013-07-09 21:08:00,
2013-07-09 17:09:00,69.6,68.7,29.94,WNW,288,8.0,12.3,97,0.28,,,0.43,6.84,VWS V14.01,2013-07-09 21:09:00,
2013-07-09 17:12:00,69.5,68.8,29.94,WNW,284,7.6,10.0,98,0.28,,,0.43,9.95,VWS V14.01,2013-07-09 21:12:00,
2013-07-09 17:13:00,69.6,68.9,29.94,West,281,8.0,8.8,98,0.28,,,0.43,9.58,VWS V14.01,2013-07-09 21:13:00,
2013-07-09 17:15:00,69.7,69.0,29.94,WNW,301,7.6,8.0,98,0.28,,,0.43,10.20,VWS V14.01,2013-07-09 21:15:00,
2013-07-09 17:17:00,70.8,70.1,29.94,WNW,288,5.2,7.3,98,0.28,,,0.43,11.48,VWS V14.01,2013-07-09 21:17:00,
2013-07-09 17:19:00,71.2,70.5,29.93,West,272,6.1,7.8,98,0.28,,,0.43,12.64,VWS V14.01,2013-07-09 21:19:00,
2013-07-09 17:20:00,70.9,70.1,29.94,WNW,291,4.0,6.1,97,0.28,,,0.43,12.58,VWS V14.01,2013-07-09 21:20:00,
2013-07-09 17:21:00,71.5,70.5,29.93,WNW,287,5.1,5.1,97,0.28,,,0.43,13.49,VWS V14.01,2013-07-09 21:21:00,
2013-07-09 17:22:00,71.1,69.9,29.95,West,280,4.0,4.0,96,0.31,,,0.47,14.47,VWS V14.01,2013-07-09 21:22:00,
2013-07-09 17:23:00,71.3,69.9,29.94,West,281,4.4,4.4,96,0.31,,,0.47,14.47,VWS V14.01,2013-07-09 21:23:00,
2013-07-09 17:24:00,71.3,69.8,29.94,West,265,4.7,5.2,95,0.31,,,0.47,13.49,VWS V14.01,2013-07-09 21:24:00,
2013-07-09 17:25:00,71.3,69.5,29.94,West,277,5.1,5.9,94,0.31,,,0.47,16.73,VWS V14.01,2013-07-09 21:25:00,
2013-07-09 17:26:00,71.3,69.5,29.94,West,277,5.1,5.9,94,0.31,,,0.47,16.73,VWS V14.01,2013-07-09 21:26:00,
2013-07-09 17:28:00,71.3,69.3,29.96,West,280,4.9,6.4,93,0.31,,,0.47,19.11,VWS V14.01,2013-07-09 21:28:00,
2013-07-09 17:29:00,71.5,69.3,29.94,WNW,288,4.9,5.7,93,0.31,,,0.47,19.66,VWS V14.01,2013-07-09 21:29:00,
2013-07-09 17:31:00,71.0,67.4,29.93,WNW,290,4.9,4.9,89,0.31,,,0.47,21.79,VWS V14.01,2013-07-09 21:31:00,
2013-07-09 17:32:00,71.0,68.9,29.94,WNW,285,3.5,5.2,93,0.31,,,0.47,23.50,VWS V14.01,2013-07-09 21:32:00,
2013-07-09 17:33:00,71.4,68.8,29.94,WNW,285,4.9,4.9,91,0.31,,,0.47,24.97,VWS V14.01,2013-07-09 21:33:00,
2013-07-09 17:36:00,71.2,69.4,29.93,WNW,295,4.4,4.4,94,0.31,,,0.47,29.37,VWS V14.01,2013-07-09 21:36:00,
2013-07-09 17:37:00,71.1,69.4,29.94,WNW,290,3.2,4.4,94,0.31,,,0.47,32.66,VWS V14.01,2013-07-09 21:37:00,
2013-07-09 17:38:00,71.1,69.4,29.94,WNW,295,3.7,3.7,94,0.31,,,0.47,34.00,VWS V14.01,2013-07-09 21:38:00,
2013-07-09 17:39:00,71.3,69.6,29.93,WNW,303,4.2,4.7,94,0.31,,,0.47,36.45,VWS V14.01,2013-07-09 21:39:00,
2013-07-09 17:41:00,71.4,69.6,29.93,WNW,291,4.2,4.5,94,0.31,,,0.47,39.87,VWS V14.01,2013-07-09 21:41:00,
2013-07-09 17:43:00,71.6,69.9,29.93,WNW,299,4.2,5.4,94,0.31,,,0.47,44.69,VWS V14.01,2013-07-09 21:43:00,
2013-07-09 17:44:00,71.5,69.8,29.93,NW,312,3.7,4.5,94,0.31,,,0.47,45.73,VWS V14.01,2013-07-09 21:44:00,
2013-07-09 17:46:00,71.6,69.9,29.94,NW,314,3.7,3.7,94,0.31,,,0.47,48.41,VWS V14.01,2013-07-09 21:46:00,
2013-07-09 17:48:00,71.5,69.9,29.93,NW,317,2.0,3.2,95,0.31,,,0.47,51.10,VWS V14.01,2013-07-09 21:48:00,
2013-07-09 17:50:00,71.5,70.0,29.94,NW,312,1.1,1.8,95,0.31,,,0.47,56.35,VWS V14.01,2013-07-09 21:50:00,
2013-07-09 17:51:00,71.6,68.1,29.93,WNW,289,3.0,3.0,89,0.31,,,0.47,55.98,VWS V14.01,2013-07-09 21:51:00,
2013-07-09 17:53:00,71.7,70.2,29.93,NW,308,1.1,1.1,95,0.31,,,0.47,60.56,VWS V14.01,2013-07-09 21:53:00,
2013-07-09 17:55:00,71.8,70.2,29.92,NNW,337,2.5,3.0,95,0.31,,,0.47,63.31,VWS V14.01,2013-07-09 21:55:00,
2013-07-09 17:56:00,71.5,70.0,29.92,NNW,328,0.0,2.5,95,0.31,,,0.47,64.90,VWS V14.01,2013-07-09 21:56:00,
2013-07-09 17:57:00,71.6,70.2,29.93,NNW,328,0.0,1.0,95,0.31,,,0.47,66.67,VWS V14.01,2013-07-09 21:57:00,
2013-07-09 17:58:00,71.8,70.4,29.93,WNW,295,0.0,0.0,95,0.31,,,0.47,67.70,VWS V14.01,2013-07-09 21:58:00,
2013-07-09 18:01:00,71.6,70.3,29.93,WNW,288,0.0,1.1,96,0.31,,,0.47,69.41,VWS V14.01,2013-07-09 22:01:00,
2013-07-09 18:02:00,71.6,70.3,29.93,WNW,288,0.0,1.1,96,0.31,,,0.47,69.41,VWS V14.01,2013-07-09 22:02:00,
2013-07-09 18:03:00,71.6,70.3,29.93,WNW,288,0.0,1.1,96,0.31,,,0.47,69.41,VWS V14.01,2013-07-09 22:03:00,
2013-07-09 18:06:00,71.9,70.4,29.91,NW,305,0.0,1.0,95,0.08,,,0.47,73.08,VWS V14.01,2013-07-09 22:06:00,
2013-07-09 18:07:00,71.9,70.4,29.91,NW,305,0.0,1.0,95,0.08,,,0.47,73.08,VWS V14.01,2013-07-09 22:07:00,
2013-07-09 18:08:00,72.0,70.6,29.92,WNW,290,0.0,0.0,95,0.08,,,0.47,73.57,VWS V14.01,2013-07-09 22:08:00,
2013-07-09 18:09:00,72.0,70.7,29.91,WNW,290,0.0,0.0,96,0.08,,,0.47,75.27,VWS V14.01,2013-07-09 22:09:00,
2013-07-09 18:11:00,72.1,70.7,29.92,West,278,0.0,0.0,95,0.04,,,0.47,77.96,VWS V14.01,2013-07-09 22:11:00,
2013-07-09 18:13:00,72.1,70.6,29.91,NW,305,0.0,0.0,95,0.04,,,0.47,80.71,VWS V14.01,2013-07-09 22:13:00,
2013-07-09 18:14:00,72.1,70.7,29.91,NW,305,0.0,0.0,95,0.04,,,0.47,82.54,VWS V14.01,2013-07-09 22:14:00,
2013-07-09 18:16:00,72.2,70.6,29.91,NW,305,0.0,0.0,95,0.04,,,0.47,87.24,VWS V14.01,2013-07-09 22:16:00,
2013-07-09 18:17:00,72.2,70.8,29.92,WNW,284,0.0,0.0,95,0.04,,,0.47,90.90,VWS V14.01,2013-07-09 22:17:00,
2013-07-09 18:18:00,72.2,70.6,29.91,WNW,284,0.0,0.0,95,0.04,,,0.47,95.06,VWS V14.01,2013-07-09 22:18:00,
2013-07-09 18:19:00,72.4,70.9,29.94,WNW,284,0.0,0.0,95,0.04,,,0.47,97.25,VWS V14.01,2013-07-09 22:19:00,
2013-07-09 18:20:00,72.4,70.9,29.92,WNW,284,0.0,0.0,95,0.04,,,0.47,100.92,VWS V14.01,2013-07-09 22:20:00,
2013-07-09 18:22:00,72.4,70.5,29.91,West,275,0.0,0.0,94,0.04,,,0.47,108.73,VWS V14.01,2013-07-09 22:22:00,
2013-07-09 18:24:00,72.5,70.7,29.91,WSW,252,0.0,0.0,94,0.00,,,0.47,114.90,VWS V14.01,2013-07-09 22:24:00,
2013-07-09 18:25:00,72.5,70.5,29.90,WSW,253,0.0,0.0,94,0.00,,,0.47,117.52,VWS V14.01,2013-07-09 22:25:00,
2013-07-09 18:28:00,72.7,70.4,29.90,West,260,1.5,1.5,93,0.00,,,0.47,126.80,VWS V14.01,2013-07-09 22:28:00,
2013-07-09 18:29:00,72.6,70.1,29.91,West,260,2.7,2.7,92,0.00,,,0.47,129.24,VWS V14.01,2013-07-09 22:29:00,
2013-07-09 18:30:00,72.6,70.1,29.90,WSW,257,2.0,2.7,92,0.00,,,0.47,131.20,VWS V14.01,2013-07-09 22:30:00,
2013-07-09 18:31:00,72.7,70.4,29.91,West,280,0.0,2.0,92,0.00,,,0.47,131.07,VWS V14.01,2013-07-09 22:31:00,
2013-07-09 18:34:00,72.9,70.6,29.90,WSW,257,0.0,0.0,92,0.00,,,0.47,144.63,VWS V14.01,2013-07-09 22:34:00,
2013-07-09 18:35:00,72.9,70.3,29.90,West,278,2.0,2.0,92,0.00,,,0.47,149.39,VWS V14.01,2013-07-09 22:35:00,
2013-07-09 18:36:00,73.1,70.6,29.90,West,281,0.0,2.0,92,0.00,,,0.47,150.24,VWS V14.01,2013-07-09 22:36:00,
2013-07-09 18:38:00,73.1,70.9,29.89,West,259,0.0,0.0,93,0.00,,,0.47,159.16,VWS V14.01,2013-07-09 22:38:00,
2013-07-09 18:40:00,73.5,70.9,29.89,WSW,237,1.0,1.0,92,0.00,,,0.47,162.39,VWS V14.01,2013-07-09 22:40:00,
2013-07-09 18:41:00,73.2,70.2,29.90,WSW,254,1.3,1.3,90,0.00,,,0.47,165.87,VWS V14.01,2013-07-09 22:41:00,
2013-07-09 18:42:00,73.4,70.4,29.90,WSW,254,1.0,1.3,90,0.00,,,0.47,168.07,VWS V14.01,2013-07-09 22:42:00,
2013-07-09 18:43:00,73.4,70.5,29.90,WSW,242,1.6,1.6,90,0.00,,,0.47,168.86,VWS V14.01,2013-07-09 22:43:00,
2013-07-09 18:45:00,73.2,70.2,29.90,West,270,2.8,2.8,90,0.00,,,0.47,173.50,VWS V14.01,2013-07-09 22:45:00,
2013-07-09 18:47:00,73.4,69.5,29.90,WSW,245,4.2,4.2,88,0.00,,,0.47,173.14,VWS V14.01,2013-07-09 22:47:00,
2013-07-09 18:49:00,73.2,69.7,29.90,WSW,251,3.7,3.9,89,0.00,,,0.47,171.25,VWS V14.01,2013-07-09 22:49:00,
2013-07-09 18:51:00,73.9,71.0,29.90,WSW,254,0.0,1.0,91,0.00,,,0.47,173.20,VWS V14.01,2013-07-09 22:51:00,
2013-07-09 18:53:00,73.6,70.0,29.89,West,275,3.9,5.1,89,0.00,,,0.47,158.55,VWS V14.01,2013-07-09 22:53:00,
2013-07-09 18:55:00,73.8,70.6,29.89,West,274,3.2,3.9,90,0.00,,,0.47,153.66,VWS V14.01,2013-07-09 22:55:00,
2013-07-09 18:56:00,73.6,70.1,29.89,West,270,4.4,4.4,89,0.00,,,0.47,152.20,VWS V14.01,2013-07-09 22:56:00,
2013-07-09 18:58:00,73.9,70.3,29.89,West,272,3.0,3.0,89,0.00,,,0.47,146.95,VWS V14.01,2013-07-09 22:58:00,
2013-07-09 19:00:00,74.0,70.6,29.90,West,273,2.5,2.5,89,0.00,,,0.47,141.45,VWS V14.01,2013-07-09 23:00:00,
2013-07-09 19:01:00,74.0,68.6,29.89,WNW,287,4.5,4.5,83,0.00,,,0.47,137.18,VWS V14.01,2013-07-09 23:01:00,
2013-07-09 19:03:00,74.0,70.6,29.89,WSW,255,2.8,2.8,89,0.00,,,0.47,131.69,VWS V14.01,2013-07-09 23:03:00,
2013-07-09 19:04:00,74.2,70.5,29.89,West,276,1.0,2.7,88,0.00,,,0.47,131.14,VWS V14.01,2013-07-09 23:04:00,
2013-07-09 19:05:00,74.1,70.4,29.89,West,267,1.8,1.8,88,0.00,,,0.47,126.80,VWS V14.01,2013-07-09 23:05:00,
2013-07-09 19:07:00,74.4,70.7,29.89,WNW,292,2.8,2.8,88,0.00,,,0.47,128.94,VWS V14.01,2013-07-09 23:07:00,
2013-07-09 19:08:00,74.2,69.5,29.89,West,267,3.2,3.2,86,0.00,,,0.47,117.34,VWS V14.01,2013-07-09 23:08:00,
2013-07-09 19:09:00,74.1,69.5,29.89,West,262,3.5,4.2,85,0.00,,,0.47,134.13,VWS V14.01,2013-07-09 23:09:00,
2013-07-09 19:10:00,74.2,69.6,29.89,West,270,3.4,3.5,86,0.00,,,0.47,138.71,VWS V14.01,2013-07-09 23:10:00,
2013-07-09 19:12:00,74.3,70.1,29.89,West,268,0.0,4.5,87,0.00,,,0.47,142.19,VWS V14.01,2013-07-09 23:12:00,
2013-07-09 19:13:00,74.2,69.8,29.89,West,260,2.2,2.2,86,0.00,,,0.47,140.11,VWS V14.01,2013-07-09 23:13:00,
2013-07-09 19:15:00,74.5,70.3,29.88,WSW,252,1.6,1.6,87,0.00,,,0.47,153.66,VWS V14.01,2013-07-09 23:15:00,
2013-07-09 19:19:00,74.3,69.5,29.88,WSW,256,3.0,3.0,85,0.00,,,0.47,152.20,VWS V14.01,2013-07-09 23:19:00,
2013-07-09 19:20:00,74.3,69.3,29.88,WSW,247,2.5,2.5,85,0.00,,,0.47,156.35,VWS V14.01,2013-07-09 23:20:00,
2013-07-09 19:21:00,74.8,70.1,29.88,WSW,255,1.1,2.2,85,0.00,,,0.47,166.30,VWS V14.01,2013-07-09 23:21:00,
2013-07-09 19:22:00,74.8,70.1,29.88,WSW,255,1.1,2.2,85,0.00,,,0.47,166.30,VWS V14.01,2013-07-09 23:22:00,
2013-07-09 19:24:00,74.6,69.3,29.88,WSW,252,2.3,3.0,84,0.00,,,0.47,161.60,VWS V14.01,2013-07-09 23:24:00,
2013-07-09 19:26:00,75.0,70.1,29.88,West,270,0.0,2.2,85,0.00,,,0.47,168.01,VWS V14.01,2013-07-09 23:26:00,
2013-07-09 19:27:00,75.1,69.8,29.88,WSW,247,1.8,3.5,84,0.00,,,0.47,165.63,VWS V14.01,2013-07-09 23:27:00,
2013-07-09 19:28:00,74.8,69.2,29.89,WSW,254,3.2,3.2,83,0.00,,,0.47,163.61,VWS V14.01,2013-07-09 23:28:00,
2013-07-09 19:31:00,75.0,69.0,29.88,West,266,0.0,0.0,82,0.00,,,0.47,161.42,VWS V14.01,2013-07-09 23:31:00,
2013-07-09 19:32:00,75.3,69.6,29.89,West,271,0.0,0.0,82,0.00,,,0.47,159.28,VWS V14.01,2013-07-09 23:32:00,
2013-07-09 19:33:00,75.0,68.8,29.88,West,268,2.7,2.7,81,0.00,,,0.47,158.24,VWS V14.01,2013-07-09 23:33:00,
2013-07-09 19:34:00,75.7,70.1,29.88,SW,231,0.0,0.0,83,0.00,,,0.47,145.60,VWS V14.01,2013-07-09 23:34:00,
2013-07-09 19:36:00,75.4,68.9,29.88,SW,231,3.0,3.0,80,0.00,,,0.47,146.95,VWS V14.01,2013-07-09 23:36:00,
2013-07-09 19:37:00,75.6,69.3,29.88,SW,223,3.0,3.0,81,0.00,,,0.47,143.90,VWS V14.01,2013-07-09 23:37:00,
2013-07-09 19:38:00,75.6,68.8,29.87,SW,232,3.7,3.7,79,0.00,,,0.47,141.45,VWS V14.01,2013-07-09 23:38:00,
2013-07-09 19:39:00,75.8,69.6,29.89,SW,228,0.0,0.0,81,0.00,,,0.47,136.57,VWS V14.01,2013-07-09 23:39:00,
2013-07-09 19:40:00,75.5,68.9,29.89,SW,233,2.3,2.3,80,0.00,,,0.47,136.75,VWS V14.01,2013-07-09 23:40:00,
2013-07-09 19:41:00,75.4,68.8,29.90,WSW,240,3.5,3.5,80,0.00,,,0.47,129.24,VWS V14.01,2013-07-09 23:41:00,
2013-07-09 19:42:00,75.6,69.2,29.89,WSW,240,1.5,3.5,81,0.00,,,0.47,131.93,VWS V14.01,2013-07-09 23:42:00,
2013-07-09 19:43:00,75.8,69.0,29.88,WSW,237,2.0,2.0,80,0.00,,,0.47,134.13,VWS V14.01,2013-07-09 23:43:00,
2013-07-09 19:46:00,75.2,69.0,29.89,WSW,245,2.3,2.8,81,0.00,,,0.47,115.45,VWS V14.01,2013-07-09 23:46:00,
2013-07-09 19:47:00,75.2,67.6,29.89,West,263,0.0,2.2,77,0.00,,,0.47,117.03,VWS V14.01,2013-07-09 23:47:00,
2013-07-09 19:49:00,75.2,69.6,29.89,WSW,256,3.5,3.5,83,0.00,,,0.47,113.37,VWS V14.01,2013-07-09 23:49:00,
2013-07-09 19:52:00,75.5,70.4,29.89,SW,233,0.0,0.0,84,0.00,,,0.47,101.16,VWS V14.01,2013-07-09 23:52:00,
2013-07-09 19:53:00,75.4,70.3,29.89,SW,235,1.0,1.8,84,0.00,,,0.47,97.50,VWS V14.01,2013-07-09 23:53:00,
2013-07-09 19:54:00,75.4,70.1,29.89,SW,226,3.4,3.4,84,0.00,,,0.47,94.08,VWS V14.01,2013-07-09 23:54:00,
2013-07-09 19:55:00,75.4,70.1,29.89,SW,226,3.4,3.4,84,0.00,,,0.47,94.08,VWS V14.01,2013-07-09 23:55:00,
2013-07-09 19:57:00,75.3,70.4,29.89,SW,234,1.6,1.6,85,0.00,,,0.47,82.84,VWS V14.01,2013-07-09 23:57:00,
2013-07-09 20:00:00,75.2,70.6,29.90,WSW,238,0.0,0.0,86,0.00,,,0.47,75.52,VWS V14.01,2013-07-10 00:00:00,
2013-07-09 20:01:00,75.2,70.8,29.89,SW,228,0.0,0.0,86,0.00,,,0.47,68.19,VWS V14.01,2013-07-10 00:01:00,
2013-07-09 20:02:00,74.9,70.6,29.90,SW,228,0.0,0.0,86,0.00,,,0.47,67.22,VWS V14.01,2013-07-10 00:02:00,
2013-07-09 20:03:00,75.0,70.9,29.89,SW,228,0.0,0.0,87,0.00,,,0.47,62.58,VWS V14.01,2013-07-10 00:03:00,
2013-07-09 20:06:00,75.1,70.9,29.89,WSW,244,1.8,1.8,87,0.00,,,0.47,54.15,VWS V14.01,2013-07-10 00:06:00,
2013-07-09 20:08:00,75.0,71.0,29.89,WSW,246,0.0,0.0,87,0.00,,,0.47,53.54,VWS V14.01,2013-07-10 00:08:00,
2013-07-09 20:09:00,75.1,71.6,29.89,WSW,240,0.0,0.0,89,0.00,,,0.47,52.32,VWS V14.01,2013-07-10 00:09:00,
2013-07-09 20:11:00,75.0,71.5,29.90,SW,235,0.0,1.0,89,0.00,,,0.47,51.10,VWS V14.01,2013-07-10 00:11:00,
2013-07-09 20:13:00,74.9,71.5,29.89,WSW,244,0.0,0.0,89,0.00,,,0.47,47.92,VWS V14.01,2013-07-10 00:13:00,
2013-07-09 20:16:00,74.8,71.5,29.89,WSW,249,2.2,2.7,89,0.00,,,0.47,44.02,VWS V14.01,2013-07-10 00:16:00,
2013-07-09 20:17:00,74.7,71.7,29.89,WSW,252,1.6,2.2,90,0.00,,,0.47,42.25,VWS V14.01,2013-07-10 00:17:00,
2013-07-09 20:19:00,74.7,71.8,29.90,WSW,245,0.0,0.0,91,0.00,,,0.47,38.77,VWS V14.01,2013-07-10 00:19:00,
2013-07-09 20:22:00,74.5,71.7,29.90,WSW,252,0.0,0.0,91,0.00,,,0.47,34.00,VWS V14.01,2013-07-10 00:22:00,
2013-07-09 20:23:00,74.6,71.9,29.90,WSW,252,1.6,1.6,91,0.00,,,0.47,30.22,VWS V14.01,2013-07-10 00:23:00,
2013-07-09 20:24:00,74.8,72.1,29.90,WSW,242,2.7,2.7,91,0.00,,,0.47,29.85,VWS V14.01,2013-07-10 00:24:00,
2013-07-09 20:25:00,74.6,71.9,29.89,WSW,241,0.0,2.7,91,0.00,,,0.47,28.51,VWS V14.01,2013-07-10 00:25:00,
2013-07-09 20:28:00,74.5,72.1,29.89,WSW,241,0.0,0.0,92,0.00,,,0.47,19.35,VWS V14.01,2013-07-10 00:28:00,
2013-07-09 20:29:00,74.4,72.1,29.90,WSW,241,0.0,0.0,92,0.00,,,0.47,18.38,VWS V14.01,2013-07-10 00:29:00,
2013-07-09 20:30:00,74.4,72.1,29.90,WSW,241,0.0,0.0,93,0.00,,,0.47,16.91,VWS V14.01,2013-07-10 00:30:00,
2013-07-09 20:31:00,74.4,72.2,29.91,WSW,243,0.0,0.0,93,0.00,,,0.47,14.71,VWS V14.01,2013-07-10 00:31:00,
2013-07-09 20:34:00,74.5,72.3,29.89,West,266,0.0,0.0,93,0.00,,,0.47,13.25,VWS V14.01,2013-07-10 00:34:00,
2013-07-09 20:35:00,74.4,72.3,29.89,West,280,0.0,0.0,93,0.00,,,0.47,12.27,VWS V14.01,2013-07-10 00:35:00,
2013-07-09 20:36:00,74.4,72.3,29.89,West,280,0.0,0.0,93,0.00,,,0.47,12.27,VWS V14.01,2013-07-10 00:36:00,
2013-07-09 20:37:00,74.5,72.5,29.89,NW,307,0.0,0.0,93,0.00,,,0.47,12.03,VWS V14.01,2013-07-10 00:37:00,
2013-07-09 20:41:00,74.1,72.4,29.90,WNW,294,0.0,0.0,94,0.00,,,0.47,9.58,VWS V14.01,2013-07-10 00:41:00,
2013-07-09 20:42:00,74.2,72.5,29.90,WNW,294,0.0,0.0,94,0.00,,,0.47,9.58,VWS V14.01,2013-07-10 00:42:00,
2013-07-09 20:46:00,74.2,72.5,29.89,WNW,286,0.0,0.0,94,0.00,,,0.47,13.92,VWS V14.01,2013-07-10 00:46:00,
2013-07-09 20:47:00,74.1,72.3,29.90,WNW,286,0.0,0.0,94,0.00,,,0.47,10.81,VWS V14.01,2013-07-10 00:47:00,
2013-07-09 20:48:00,73.9,72.1,29.90,WNW,286,0.0,0.0,94,0.00,,,0.47,10.26,VWS V14.01,2013-07-10 00:48:00,
2013-07-09 20:52:00,73.9,72.4,29.90,WNW,286,0.0,0.0,95,0.00,,,0.47,7.75,VWS V14.01,2013-07-10 00:52:00,
2013-07-09 20:53:00,74.0,72.5,29.90,WSW,243,0.0,0.0,95,0.00,,,0.47,7.45,VWS V14.01,2013-07-10 00:53:00,
2013-07-09 20:56:00,74.2,72.8,29.89,SW,227,0.0,0.0,96,0.00,,,0.47,4.95,VWS V14.01,2013-07-10 00:56:00,
2013-07-09 20:57:00,74.4,73.1,29.89,SW,227,0.0,0.0,96,0.00,,,0.47,4.70,VWS V14.01,2013-07-10 00:57:00,
2013-07-09 20:58:00,74.3,73.0,29.89,SW,227,0.0,0.0,96,0.00,,,0.47,5.31,VWS V14.01,2013-07-10 00:58:00,
2013-07-09 20:59:00,74.2,72.8,29.89,SW,227,0.0,0.0,95,0.00,,,0.47,4.15,VWS V14.01,2013-07-10 00:59:00,
2013-07-09 21:02:00,74.3,72.9,29.89,SSW,192,1.1,1.1,95,0.00,,,0.47,2.50,VWS V14.01,2013-07-10 01:02:00,
2013-07-09 21:03:00,74.0,72.7,29.89,SSW,192,0.0,0.0,96,0.00,,,0.47,2.50,VWS V14.01,2013-07-10 01:03:00,
2013-07-09 21:04:00,74.0,72.7,29.89,SSW,192,0.0,0.0,96,0.00,,,0.47,2.26,VWS V14.01,2013-07-10 01:04:00,
2013-07-09 21:05:00,74.1,72.8,29.90,SSW,192,0.0,0.0,96,0.00,,,0.47,2.87,VWS V14.01,2013-07-10 01:05:00,
2013-07-09 21:07:00,74.0,72.9,29.89,SSW,192,0.0,0.0,96,0.00,,,0.47,2.01,VWS V14.01,2013-07-10 01:07:00,
2013-07-09 21:08:00,73.9,72.9,29.89,SSW,192,0.0,0.0,97,0.00,,,0.47,1.53,VWS V14.01,2013-07-10 01:08:00,
2013-07-09 21:09:00,73.8,72.7,29.90,SSW,193,0.0,0.0,97,0.00,,,0.47,1.53,VWS V14.01,2013-07-10 01:09:00,
2013-07-09 21:10:00,73.7,72.7,29.90,SSW,195,0.0,0.0,97,0.00,,,0.47,1.83,VWS V14.01,2013-07-10 01:10:00,
2013-07-09 21:13:00,73.7,72.8,29.90,SSW,195,0.0,0.0,97,0.00,,,0.47,1.04,VWS V14.01,2013-07-10 01:13:00,
2013-07-09 21:14:00,73.7,71.6,29.89,SSW,197,0.0,0.0,93,0.00,,,0.47,0.55,VWS V14.01,2013-07-10 01:14:00,
2013-07-09 21:15:00,73.8,72.9,29.90,SSW,197,0.0,0.0,97,0.00,,,0.47,2.14,VWS V14.01,2013-07-10 01:15:00,
2013-07-09 21:18:00,73.7,72.9,29.90,SSW,197,0.0,0.0,97,0.00,,,0.47,0.31,VWS V14.01,2013-07-10 01:18:00,
2013-07-09 21:20:00,73.8,73.1,29.90,SSW,197,0.0,0.0,97,0.00,,,0.47,0.79,VWS V14.01,2013-07-10 01:20:00,
2013-07-09 21:21:00,73.9,73.1,29.89,SSW,197,0.0,0.0,97,0.00,,,0.47,1.71,VWS V14.01,2013-07-10 01:21:00,
2013-07-09 21:23:00,73.9,73.2,29.90,SSW,197,0.0,0.0,98,0.00,,,0.47,0.31,VWS V14.01,2013-07-10 01:23:00,
2013-07-09 21:26:00,73.8,73.1,29.90,SSW,197,0.0,0.0,98,0.00,,,0.47,0.00,VWS V14.01,2013-07-10 01:26:00,
2013-07-09 21:27:00,73.8,73.1,29.90,South,190,0.0,0.0,98,0.00,,,0.47,0.00,VWS V14.01,2013-07-10 01:27:00,
2013-07-09 21:29:00,73.7,73.0,29.90,South,190,0.0,0.0,98,0.00,,,0.47,0.43,VWS V14.01,2013-07-10 01:29:00,
2013-07-09 21:31:00,73.6,73.0,29.90,South,190,0.0,0.0,98,0.00,,,0.47,0.00,VWS V14.01,2013-07-10 01:31:00,
2013-07-09 21:32:00,73.5,73.0,29.90,South,190,0.0,0.0,98,0.00,,,0.47,0.00,VWS V14.01,2013-07-10 01:32:00,
2013-07-09 21:35:00,73.5,73.0,29.90,South,176,0.0,0.0,98,0.00,,,0.47,0.00,VWS V14.01,2013-07-10 01:35:00,
2013-07-09 21:36:00,73.5,73.0,29.90,SSE,162,0.0,0.0,99,0.00,,,0.47,0.00,VWS V14.01,2013-07-10 01:36:00,
2013-07-09 21:37:00,73.5,73.1,29.90,SSE,162,0.0,0.0,99,0.00,,,0.47,0.12,VWS V14.01,2013-07-10 01:37:00,
2013-07-09 21:38:00,73.4,73.0,29.90,SSE,156,0.0,0.0,99,0.00,,,0.47,0.00,VWS V14.01,2013-07-10 01:38:00,
2013-07-09 21:41:00,73.5,73.2,29.90,SE,133,0.0,0.0,99,0.00,,,0.47,0.00,VWS V14.01,2013-07-10 01:41:00,
2013-07-09 21:42:00,73.5,73.3,29.90,SE,133,0.0,0.0,99,0.00,,,0.47,0.43,VWS V14.01,2013-07-10 01:42:00,
2013-07-09 21:44:00,73.6,73.3,29.90,SE,133,0.0,0.0,99,0.00,,,0.47,0.00,VWS V14.01,2013-07-10 01:44:00,
2013-07-09 21:45:00,73.6,73.3,29.90,SE,133,0.0,0.0,99,0.00,,,0.47,0.00,VWS V14.01,2013-07-10 01:45:00,
2013-07-09 21:48:00,73.6,73.3,29.89,SE,134,0.0,0.0,99,0.00,,,0.47,0.00,VWS V14.01,2013-07-10 01:48:00,
2013-07-09 21:50:00,73.6,73.4,29.89,SE,131,0.0,1.5,99,0.00,,,0.47,0.00,VWS V14.01,2013-07-10 01:50:00,
2013-07-09 21:51:00,73.5,73.3,29.89,SE,133,0.0,0.0,99,0.00,,,0.47,0.00,VWS V14.01,2013-07-10 01:51:00,
2013-07-09 21:52:00,73.6,73.4,29.90,SE,133,0.0,0.0,99,0.00,,,0.47,0.00,VWS V14.01,2013-07-10 01:52:00,
2013-07-09 21:53:00,73.6,73.4,29.91,SE,133,0.0,0.0,99,0.00,,,0.47,0.00,VWS V14.01,2013-07-10 01:53:00,
2013-07-09 21:58:00,73.7,73.5,29.90,SSE,147,0.0,0.0,99,0.00,,,0.47,0.00,VWS V14.01,2013-07-10 01:58:00,
2013-07-09 21:59:00,73.7,73.5,29.90,SSE,147,0.0,0.0,99,0.00,,,0.47,0.00,VWS V14.01,2013-07-10 01:59:00,
2013-07-09 22:01:00,73.7,73.5,29.90,SSE,147,0.0,0.0,99,0.00,,,0.47,0.00,VWS V14.01,2013-07-10 02:01:00,
2013-07-09 22:04:00,73.7,73.5,29.91,SSE,147,0.0,0.0,99,0.00,,,0.47,0.00,VWS V14.01,2013-07-10 02:04:00,
2013-07-09 22:05:00,73.6,73.5,29.90,SSE,147,0.0,0.0,99,0.00,,,0.47,0.00,VWS V14.01,2013-07-10 02:05:00,
2013-07-09 22:08:00,73.6,73.4,29.90,SSE,147,0.0,0.0,99,0.00,,,0.47,0.00,VWS V14.01,2013-07-10 02:08:00,
2013-07-09 22:09:00,73.6,73.4,29.90,SSE,155,0.0,0.0,99,0.00,,,0.47,0.00,VWS V14.01,2013-07-10 02:09:00,
2013-07-09 22:10:00,73.6,73.4,29.90,SSE,155,0.0,0.0,99,0.00,,,0.47,0.00,VWS V14.01,2013-07-10 02:10:00,
2013-07-09 22:14:00,73.5,73.4,29.90,SSE,153,0.0,1.0,100,0.00,,,0.47,0.43,VWS V14.01,2013-07-10 02:14:00,
2013-07-09 22:15:00,73.5,73.4,29.91,SSE,156,0.0,0.0,100,0.00,,,0.47,0.98,VWS V14.01,2013-07-10 02:15:00,
2013-07-09 22:17:00,73.5,73.4,29.89,SSE,157,0.0,0.0,100,0.00,,,0.47,0.43,VWS V14.01,2013-07-10 02:17:00,
2013-07-09 22:18:00,73.4,73.3,29.89,SSE,156,0.0,0.0,100,0.00,,,0.47,0.00,VWS V14.01,2013-07-10 02:18:00,
2013-07-09 22:20:00,73.4,73.3,29.90,SSE,156,0.0,0.0,100,0.00,,,0.47,0.43,VWS V14.01,2013-07-10 02:20:00,
2013-07-09 22:21:00,73.4,73.4,29.90,SSE,156,0.0,0.0,100,0.00,,,0.47,0.43,VWS V14.01,2013-07-10 02:21:00,
2013-07-09 22:22:00,73.4,73.4,29.89,SSE,155,0.0,0.0,100,0.00,,,0.47,0.00,VWS V14.01,2013-07-10 02:22:00,
2013-07-09 22:25:00,73.5,73.5,29.90,SSE,155,0.0,0.0,100,0.00,,,0.47,0.00,VWS V14.01,2013-07-10 02:25:00,
2013-07-09 22:26:00,73.5,73.5,29.90,SSE,155,0.0,0.0,100,0.00,,,0.47,0.00,VWS V14.01,2013-07-10 02:26:00,
2013-07-09 22:27:00,73.4,73.4,29.90,SSE,155,0.0,0.0,100,0.00,,,0.47,0.00,VWS V14.01,2013-07-10 02:27:00,
2013-07-09 22:28:00,73.5,73.5,29.90,SSE,155,0.0,0.0,100,0.00,,,0.47,0.00,VWS V14.01,2013-07-10 02:28:00,
2013-07-09 22:30:00,73.5,73.5,29.90,SSE,156,0.0,0.0,100,0.00,,,0.47,0.00,VWS V14.01,2013-07-10 02:30:00,
2013-07-09 22:33:00,73.4,73.4,29.90,SSE,156,0.0,0.0,100,0.00,,,0.47,0.00,VWS V14.01,2013-07-10 02:33:00,
2013-07-09 22:34:00,73.4,73.4,29.90,SSE,156,0.0,0.0,100,0.00,,,0.47,0.43,VWS V14.01,2013-07-10 02:34:00,
2013-07-09 22:38:00,73.3,73.4,29.91,SSE,156,0.0,0.0,100,0.00,,,0.47,0.73,VWS V14.01,2013-07-10 02:38:00,
2013-07-09 22:39:00,73.3,73.4,29.90,SSE,156,0.0,0.0,100,0.00,,,0.47,0.00,VWS V14.01,2013-07-10 02:39:00,
2013-07-09 22:40:00,73.2,73.2,29.90,SSE,156,0.0,0.0,100,0.00,,,0.47,0.73,VWS V14.01,2013-07-10 02:40:00,
2013-07-09 22:44:00,73.2,73.2,29.90,SSE,156,0.0,0.0,100,0.00,,,0.47,0.00,VWS V14.01,2013-07-10 02:44:00,
2013-07-09 22:45:00,73.1,73.1,29.90,SSE,156,0.0,0.0,100,0.00,,,0.47,0.73,VWS V14.01,2013-07-10 02:45:00,
2013-07-09 22:47:00,73.1,73.1,29.90,SSE,156,0.0,0.0,100,0.00,,,0.47,0.00,VWS V14.01,2013-07-10 02:47:00,
2013-07-09 22:49:00,73.1,73.1,29.90,SSE,156,0.0,0.0,100,0.00,,,0.47,0.00,VWS V14.01,2013-07-10 02:49:00,
2013-07-09 22:50:00,73.0,73.0,29.90,SSE,156,0.0,0.0,100,0.00,,,0.47,0.00,VWS V14.01,2013-07-10 02:50:00,
2013-07-09 22:52:00,73.1,73.1,29.90,SSE,157,0.0,0.0,100,0.00,,,0.47,0.43,VWS V14.01,2013-07-10 02:52:00,
2013-07-09 22:53:00,72.9,72.9,29.90,SSE,157,0.0,0.0,100,0.00,,,0.47,0.00,VWS V14.01,2013-07-10 02:53:00,
2013-07-09 22:55:00,72.9,72.9,29.89,SSE,153,0.0,0.0,100,0.00,,,0.47,0.00,VWS V14.01,2013-07-10 02:55:00,
2013-07-09 22:56:00,72.8,72.8,29.89,SSE,153,0.0,0.0,100,0.00,,,0.47,0.12,VWS V14.01,2013-07-10 02:56:00,
2013-07-09 22:57:00,72.9,72.9,29.90,SSE,153,0.0,0.0,100,0.00,,,0.47,0.43,VWS V14.01,2013-07-10 02:57:00,
2013-07-09 22:58:00,72.9,72.9,29.90,SSE,153,0.0,0.0,100,0.00,,,0.47,0.00,VWS V14.01,2013-07-10 02:58:00,
2013-07-09 23:01:00,73.0,73.0,29.90,SSE,154,0.0,0.0,100,0.00,,,0.47,0.00,VWS V14.01,2013-07-10 03:01:00,
2013-07-09 23:03:00,73.1,73.1,29.90,SSE,161,0.0,0.0,100,0.00,,,0.47,0.00,VWS V14.01,2013-07-10 03:03:00,
2013-07-09 23:04:00,73.0,73.0,29.90,SSE,161,0.0,0.0,100,0.00,,,0.47,0.00,VWS V14.01,2013-07-10 03:04:00,
2013-07-09 23:05:00,73.0,73.0,29.90,SSE,158,0.0,0.0,100,0.00,,,0.47,0.00,VWS V14.01,2013-07-10 03:05:00,
2013-07-09 23:06:00,73.0,73.0,29.90,South,169,0.0,0.0,100,0.00,,,0.47,0.00,VWS V14.01,2013-07-10 03:06:00,
2013-07-09 23:08:00,72.9,72.9,29.90,South,169,0.0,0.0,100,0.00,,,0.47,0.00,VWS V14.01,2013-07-10 03:08:00,
2013-07-09 23:10:00,72.9,72.9,29.90,South,169,0.0,0.0,100,0.00,,,0.47,0.00,VWS V14.01,2013-07-10 03:10:00,
2013-07-09 23:13:00,73.1,73.1,29.89,South,169,0.0,0.0,100,0.00,,,0.47,0.00,VWS V14.01,2013-07-10 03:13:00,
2013-07-09 23:15:00,72.8,72.8,29.89,South,169,0.0,0.0,100,0.00,,,0.47,0.00,VWS V14.01,2013-07-10 03:15:00,
2013-07-09 23:16:00,72.8,72.8,29.89,South,169,0.0,0.0,100,0.00,,,0.47,0.00,VWS V14.01,2013-07-10 03:16:00,
2013-07-09 23:17:00,72.8,72.8,29.90,South,169,0.0,0.0,100,0.00,,,0.47,0.12,VWS V14.01,2013-07-10 03:17:00,
2013-07-09 23:18:00,72.8,72.8,29.89,South,169,0.0,0.0,100,0.00,,,0.47,0.12,VWS V14.01,2013-07-10 03:18:00,
2013-07-09 23:20:00,73.1,73.1,29.90,South,191,0.0,0.0,100,0.00,,,0.47,0.00,VWS V14.01,2013-07-10 03:20:00,
2013-07-09 23:21:00,73.3,73.3,29.89,South,188,0.0,0.0,100,0.00,,,0.47,0.00,VWS V14.01,2013-07-10 03:21:00,
2013-07-09 23:23:00,73.1,73.1,29.90,SSW,199,0.0,0.0,100,0.00,,,0.47,0.00,VWS V14.01,2013-07-10 03:23:00,
2013-07-09 23:24:00,73.0,73.0,29.89,SW,214,0.0,0.0,100,0.00,,,0.47,0.00,VWS V14.01,2013-07-10 03:24:00,
2013-07-09 23:25:00,72.9,72.9,29.91,SSW,212,0.0,0.0,100,0.00,,,0.47,0.00,VWS V14.01,2013-07-10 03:25:00,
2013-07-09 23:27:00,72.9,72.9,29.90,SSW,212,0.0,0.0,100,0.00,,,0.47,0.00,VWS V14.01,2013-07-10 03:27:00,
2013-07-09 23:28:00,72.7,72.7,29.89,SSW,205,0.0,0.0,100,0.00,,,0.47,0.00,VWS V14.01,2013-07-10 03:28:00,
2013-07-09 23:29:00,72.6,72.6,29.89,SSW,205,0.0,0.0,100,0.00,,,0.47,0.00,VWS V14.01,2013-07-10 03:29:00,
2013-07-09 23:30:00,72.8,72.8,29.88,SW,224,0.0,0.0,100,0.00,,,0.47,0.00,VWS V14.01,2013-07-10 03:30:00,
2013-07-09 23:32:00,72.5,72.5,29.88,SW,224,0.0,0.0,100,0.00,,,0.47,0.00,VWS V14.01,2013-07-10 03:32:00,
2013-07-09 23:33:00,72.6,72.7,29.89,SW,224,0.0,0.0,100,0.00,,,0.47,0.00,VWS V14.01,2013-07-10 03:33:00,
2013-07-09 23:35:00,72.8,72.8,29.88,SW,223,0.0,0.0,100,0.00,,,0.47,0.00,VWS V14.01,2013-07-10 03:35:00,
2013-07-09 23:36:00,72.8,72.8,29.89,SW,217,0.0,0.0,100,0.00,,,0.47,0.00,VWS V14.01,2013-07-10 03:36:00,
2013-07-09 23:39:00,72.7,72.7,29.89,SW,217,0.0,0.0,100,0.00,,,0.47,0.00,VWS V14.01,2013-07-10 03:39:00,
2013-07-09 23:40:00,72.8,72.9,29.89,SW,217,0.0,0.0,100,0.00,,,0.47,0.43,VWS V14.01,2013-07-10 03:40:00,
2013-07-09 23:41:00,73.0,73.0,29.89,SW,220,0.0,0.0,100,0.00,,,0.47,0.00,VWS V14.01,2013-07-10 03:41:00,
2013-07-09 23:42:00,72.8,72.8,29.88,SW,221,0.0,0.0,100,0.00,,,0.47,0.00,VWS V14.01,2013-07-10 03:42:00,
2013-07-09 23:44:00,72.8,72.8,29.88,SW,228,0.0,0.0,100,0.00,,,0.47,0.00,VWS V14.01,2013-07-10 03:44:00,
2013-07-09 23:46:00,72.6,72.6,29.88,SW,230,0.0,0.0,100,0.00,,,0.47,0.00,VWS V14.01,2013-07-10 03:46:00,
2013-07-09 23:47:00,72.9,72.9,29.89,WSW,237,0.0,0.0,100,0.00,,,0.47,0.00,VWS V14.01,2013-07-10 03:47:00,
2013-07-09 23:48:00,73.0,73.0,29.89,SW,221,0.0,0.0,100,0.00,,,0.47,0.43,VWS V14.01,2013-07-10 03:48:00,
2013-07-09 23:49:00,73.1,73.1,29.88,SW,221,0.0,0.0,100,0.00,,,0.47,0.00,VWS V14.01,2013-07-10 03:49:00,
2013-07-09 23:51:00,73.2,73.2,29.88,SW,222,2.3,2.5,100,0.00,,,0.47,0.00,VWS V14.01,2013-07-10 03:51:00,
2013-07-09 23:52:00,73.4,73.4,29.88,SW,218,3.5,3.9,100,0.00,,,0.47,0.12,VWS V14.01,2013-07-10 03:52:00,
2013-07-09 23:53:00,73.6,73.6,29.88,SW,228,3.0,3.9,100,0.00,,,0.47,0.00,VWS V14.01,2013-07-10 03:53:00,
2013-07-09 23:57:00,73.4,73.4,29.88,SW,214,2.5,2.7,100,0.00,,,0.47,0.98,VWS V14.01,2013-07-10 03:57:00,
2013-07-09 23:58:00,73.2,73.2,29.88,SW,215,3.7,3.7,100,0.00,,,0.47,0.00,VWS V14.01,2013-07-10 03:58:00,
2013-07-09 23:59:00,73.4,73.4,29.87,SSW,208,2.7,3.4,100,0.00,,,0.47,0.00,VWS V14.01,2013-07-10 03:59:00,